Observation data for New Home on 08/06/2020      Previous  Date       Current Mesonet Observations  Soil Data  Daily Summary Page  Observations in Plain Language
KNH1 060500Z 11005KT 26/16 A3002 RMK A01 T02580163  RH  056%=      5-min Rain = 0
KNH1 060501Z 11006KT 26/16 A3002 RMK A01 T02580163  RH  056%=      5-min Rain = 0
KNH1 060502Z 11005KT 26/16 A3002 RMK A01 T02580163  RH  056%=      5-min Rain = 0
KNH1 060503Z 11006KT 26/16 A3002 RMK A01 T02580163  RH  056%=      5-min Rain = 0
KNH1 060504Z 11005KT 26/16 A3002 RMK A01 T02580164  RH  056%=      5-min Rain = 0
KNH1 060505Z 11005KT 26/16 A3002 RMK A01 T02570164  RH  056%=      5-min Rain = 0
KNH1 060506Z 11005KT 26/16 A3002 RMK A01 T02570164  RH  057%=      5-min Rain = 0
KNH1 060507Z 11005KT 26/16 A3002 RMK A01 T02560164  RH  057%=      5-min Rain = 0
KNH1 060508Z 11006KT 26/16 A3002 RMK A01 T02560164  RH  057%=      5-min Rain = 0
KNH1 060509Z 11006KT 26/16 A3002 RMK A01 T02560163  RH  056%=      5-min Rain = 0
KNH1 060510Z 11005KT 26/16 A3002 RMK A01 T02560163  RH  056%=      5-min Rain = 0
KNH1 060511Z 11005KT 26/16 A3002 RMK A01 T02560163  RH  056%=      5-min Rain = 0
KNH1 060512Z 10005KT 26/16 A3002 RMK A01 T02560163  RH  057%=      5-min Rain = 0
KNH1 060513Z 11006KT 26/16 A3002 RMK A01 T02550163  RH  057%=      5-min Rain = 0
KNH1 060514Z 11006KT 26/16 A3002 RMK A01 T02560163  RH  056%=      5-min Rain = 0
KNH1 060515Z 11006KT 26/16 A3002 RMK A01 T02560163  RH  056%=      5-min Rain = 0
KNH1 060516Z 10005KT 26/16 A3002 RMK A01 T02550162  RH  056%=      5-min Rain = 0
KNH1 060517Z 11005KT 26/16 A3002 RMK A01 T02550163  RH  056%=      5-min Rain = 0
KNH1 060518Z 11006KT 26/16 A3002 RMK A01 T02550162  RH  056%=      5-min Rain = 0
KNH1 060519Z 12006KT 26/16 A3002 RMK A01 T02550162  RH  056%=      5-min Rain = 0
KNH1 060520Z 11006KT 26/16 A3002 RMK A01 T02550162  RH  056%=      5-min Rain = 0
KNH1 060521Z 11006KT 26/16 A3002 RMK A01 T02550162  RH  056%=      5-min Rain = 0
KNH1 060522Z 11005KT 26/16 A3002 RMK A01 T02550161  RH  056%=      5-min Rain = 0
KNH1 060523Z 10006KT 26/16 A3002 RMK A01 T02550162  RH  056%=      5-min Rain = 0
KNH1 060524Z 11006KT 26/16 A3002 RMK A01 T02550162  RH  056%=      5-min Rain = 0
KNH1 060525Z 11006KT 26/16 A3002 RMK A01 T02550161  RH  056%=      5-min Rain = 0
KNH1 060526Z 12006KT 26/16 A3002 RMK A01 T02550161  RH  056%=      5-min Rain = 0
KNH1 060527Z 12007KT 26/16 A3002 RMK A01 T02550161  RH  056%=      5-min Rain = 0
KNH1 060528Z 11006KT 26/16 A3002 RMK A01 T02550161  RH  056%=      5-min Rain = 0
KNH1 060529Z 11006KT 26/16 A3002 RMK A01 T02550160  RH  056%=      5-min Rain = 0
KNH1 060530Z 11006KT 26/16 A3002 RMK A01 T02560161  RH  056%=      5-min Rain = 0
KNH1 060531Z 11006KT 26/16 A3002 RMK A01 T02560161  RH  056%=      5-min Rain = 0
KNH1 060532Z 11006KT 26/16 A3002 RMK A01 T02560160  RH  056%=      5-min Rain = 0
KNH1 060533Z 12006KT 26/16 A3002 RMK A01 T02560160  RH  055%=      5-min Rain = 0
KNH1 060534Z 12006KT 26/16 A3002 RMK A01 T02550160  RH  055%=      5-min Rain = 0
KNH1 060535Z 11006KT 26/16 A3002 RMK A01 T02550159  RH  055%=      5-min Rain = 0
KNH1 060536Z 12005KT 26/16 A3002 RMK A01 T02550159  RH  055%=      5-min Rain = 0
KNH1 060537Z 12005KT 26/16 A3002 RMK A01 T02550159  RH  055%=      5-min Rain = 0
KNH1 060538Z 12005KT 26/16 A3002 RMK A01 T02550158  RH  055%=      5-min Rain = 0
KNH1 060539Z 12005KT 26/16 A3002 RMK A01 T02550157  RH  055%=      5-min Rain = 0
KNH1 060540Z 12005KT 26/16 A3002 RMK A01 T02550157  RH  055%=      5-min Rain = 0
KNH1 060541Z 13005KT 26/16 A3002 RMK A01 T02550157  RH  054%=      5-min Rain = 0
KNH1 060542Z 13005KT 26/16 A3002 RMK A01 T02550155  RH  054%=      5-min Rain = 0
KNH1 060543Z 13005KT 26/16 A3002 RMK A01 T02550155  RH  054%=      5-min Rain = 0
KNH1 060544Z 13005KT 26/15 A3002 RMK A01 T02550153  RH  053%=      5-min Rain = 0
KNH1 060545Z 13006KT 26/15 A3002 RMK A01 T02550152  RH  053%=      5-min Rain = 0
KNH1 060546Z 14005KT 26/15 A3002 RMK A01 T02550152  RH  053%=      5-min Rain = 0
KNH1 060547Z 13006KT 26/15 A3002 RMK A01 T02550150  RH  052%=      5-min Rain = 0
KNH1 060548Z 13005KT 26/15 A3002 RMK A01 T02560149  RH  052%=      5-min Rain = 0
KNH1 060549Z 14005KT 26/15 A3002 RMK A01 T02560149  RH  051%=      5-min Rain = 0
KNH1 060550Z 14006KT 26/15 A3002 RMK A01 T02560148  RH  051%=      5-min Rain = 0
KNH1 060551Z 15005KT 26/15 A3002 RMK A01 T02570147  RH  051%=      5-min Rain = 0
KNH1 060552Z 15005KT 26/15 A3002 RMK A01 T02570146  RH  050%=      5-min Rain = 0
KNH1 060553Z 14005KT 26/15 A3002 RMK A01 T02580145  RH  050%=      5-min Rain = 0
KNH1 060554Z 15006KT 26/14 A3002 RMK A01 T02580143  RH  049%=      5-min Rain = 0
KNH1 060555Z 16005KT 26/14 A3001 RMK A01 T02590142  RH  048%=      5-min Rain = 0
KNH1 060556Z 15005KT 26/14 A3001 RMK A01 T02610141  RH  048%=      5-min Rain = 0
KNH1 060557Z 15005KT 26/14 A3001 RMK A01 T02610141  RH  047%=      5-min Rain = 0
KNH1 060558Z 14005KT 26/14 A3001 RMK A01 T02620141  RH  047%=      5-min Rain = 0
KNH1 060559Z 16006KT 26/14 A3001 RMK A01 T02620139  RH  047%=      5-min Rain = 0
KNH1 060600Z 15006KT 26/14 A3001 RMK A01 T02630138  RH  046%=      5-min Rain = 0
KNH1 060601Z 15006KT 26/14 A3001 RMK A01 T02640137  RH  046%=      5-min Rain = 0
KNH1 060602Z 16006KT 26/14 A3001 RMK A01 T02640136  RH  045%=      5-min Rain = 0
KNH1 060603Z 16006KT 27/14 A3001 RMK A01 T02650135  RH  045%=      5-min Rain = 0
KNH1 060604Z 15006KT 27/14 A3001 RMK A01 T02650135  RH  045%=      5-min Rain = 0
KNH1 060605Z 16007KT 27/13 A3001 RMK A01 T02650134  RH  044%=      5-min Rain = 0
KNH1 060606Z 16007KT 27/13 A3001 RMK A01 T02650132  RH  044%=      5-min Rain = 0
KNH1 060607Z 16007KT 27/13 A3001 RMK A01 T02660132  RH  043%=      5-min Rain = 0
KNH1 060608Z 16006KT 27/13 A3001 RMK A01 T02670131  RH  043%=      5-min Rain = 0
KNH1 060609Z 16007KT 27/13 A3001 RMK A01 T02670129  RH  042%=      5-min Rain = 0
KNH1 060610Z 16007KT 27/13 A3001 RMK A01 T02680128  RH  042%=      5-min Rain = 0
KNH1 060611Z 17007KT 27/13 A3001 RMK A01 T02690127  RH  041%=      5-min Rain = 0
KNH1 060612Z 17007KT 27/13 A3001 RMK A01 T02700127  RH  041%=      5-min Rain = 0
KNH1 060613Z 17007KT 27/13 A3001 RMK A01 T02700125  RH  041%=      5-min Rain = 0
KNH1 060614Z 17008KT 27/13 A3001 RMK A01 T02710125  RH  040%=      5-min Rain = 0
KNH1 060615Z 17007KT 27/12 A3001 RMK A01 T02710123  RH  040%=      5-min Rain = 0
KNH1 060616Z 17008KT 27/12 A3001 RMK A01 T02720123  RH  040%=      5-min Rain = 0
KNH1 060617Z 18007KT 27/12 A3001 RMK A01 T02730123  RH  039%=      5-min Rain = 0
KNH1 060618Z 18008KT 27/12 A3001 RMK A01 T02730122  RH  039%=      5-min Rain = 0
KNH1 060619Z 18007KT 27/12 A3001 RMK A01 T02720122  RH  039%=      5-min Rain = 0
KNH1 060620Z 18007KT 27/12 A3001 RMK A01 T02730122  RH  039%=      5-min Rain = 0
KNH1 060621Z 18008KT 27/12 A3001 RMK A01 T02720121  RH  039%=      5-min Rain = 0
KNH1 060622Z 17007KT 27/12 A3001 RMK A01 T02720120  RH  039%=      5-min Rain = 0
KNH1 060623Z 18007KT 27/12 A3001 RMK A01 T02720121  RH  039%=      5-min Rain = 0
KNH1 060624Z 18007KT 27/12 A3001 RMK A01 T02720121  RH  039%=      5-min Rain = 0
KNH1 060625Z 18008KT 27/12 A3001 RMK A01 T02720120  RH  039%=      5-min Rain = 0
KNH1 060626Z 18008KT 27/12 A3001 RMK A01 T02720120  RH  039%=      5-min Rain = 0
KNH1 060627Z 18009KT 27/12 A3001 RMK A01 T02720120  RH  039%=      5-min Rain = 0
KNH1 060628Z 18008KT 27/12 A3001 RMK A01 T02720119  RH  039%=      5-min Rain = 0
KNH1 060629Z 18008KT 27/12 A3001 RMK A01 T02710120  RH  039%=      5-min Rain = 0
KNH1 060630Z 18009KT 27/12 A3001 RMK A01 T02710120  RH  039%=      5-min Rain = 0
KNH1 060631Z 19008KT 27/12 A3001 RMK A01 T02700119  RH  039%=      5-min Rain = 0
KNH1 060632Z 18009KT 27/12 A3001 RMK A01 T02700119  RH  039%=      5-min Rain = 0
KNH1 060633Z 18008KT 27/12 A3001 RMK A01 T02700119  RH  039%=      5-min Rain = 0
KNH1 060634Z 18009KT 27/12 A3001 RMK A01 T02690119  RH  039%=      5-min Rain = 0
KNH1 060635Z 18008KT 27/12 A3001 RMK A01 T02690120  RH  040%=      5-min Rain = 0
KNH1 060636Z 18008KT 27/12 A30 RMK A01 T02680120  RH  040%=      5-min Rain = 0
KNH1 060637Z 18008KT 27/12 A3001 RMK A01 T02670121  RH  040%=      5-min Rain = 0
KNH1 060638Z 18008KT 27/12 A30 RMK A01 T02660121  RH  040%=      5-min Rain = 0
KNH1 060639Z 18008KT 27/12 A30 RMK A01 T02650121  RH  041%=      5-min Rain = 0
KNH1 060640Z 19009KT 27/12 A30 RMK A01 T02650121  RH  041%=      5-min Rain = 0
KNH1 060641Z 19008KT 27/12 A3001 RMK A01 T02650121  RH  041%=      5-min Rain = 0
KNH1 060642Z 19009KT 27/12 A3001 RMK A01 T02650121  RH  041%=      5-min Rain = 0
KNH1 060643Z 19009KT 26/12 A3001 RMK A01 T02640121  RH  041%=      5-min Rain = 0
KNH1 060644Z 19009KT 26/12 A3001 RMK A01 T02640121  RH  041%=      5-min Rain = 0
KNH1 060645Z 19009KT 26/12 A3001 RMK A01 T02640121  RH  041%=      5-min Rain = 0
KNH1 060646Z 19008KT 26/12 A3001 RMK A01 T02630122  RH  041%=      5-min Rain = 0
KNH1 060647Z 19008KT 26/12 A3001 RMK A01 T02630121  RH  041%=      5-min Rain = 0
KNH1 060648Z 19008KT 26/12 A3001 RMK A01 T02620122  RH  042%=      5-min Rain = 0
KNH1 060649Z 19008KT 26/12 A3001 RMK A01 T02620122  RH  042%=      5-min Rain = 0
KNH1 060650Z 19008KT 26/12 A3001 RMK A01 T02620122  RH  042%=      5-min Rain = 0
KNH1 060651Z 19009KT 26/12 A3001 RMK A01 T02610122  RH  042%=      5-min Rain = 0
KNH1 060652Z 19008KT 26/12 A3001 RMK A01 T02610122  RH  042%=      5-min Rain = 0
KNH1 060653Z 19008KT 26/12 A3001 RMK A01 T02620122  RH  042%=      5-min Rain = 0
KNH1 060654Z 19008KT 26/12 A3001 RMK A01 T02610122  RH  042%=      5-min Rain = 0
KNH1 060655Z 19008KT 26/12 A3001 RMK A01 T02610122  RH  042%=      5-min Rain = 0
KNH1 060656Z 19008KT 26/12 A3001 RMK A01 T02600121  RH  042%=      5-min Rain = 0
KNH1 060657Z 19007KT 26/12 A3001 RMK A01 T02610121  RH  042%=      5-min Rain = 0
KNH1 060658Z 19007KT 26/12 A3001 RMK A01 T02610122  RH  042%=      5-min Rain = 0
KNH1 060659Z 19007KT 26/12 A3001 RMK A01 T02610122  RH  042%=      5-min Rain = 0
KNH1 060700Z 20008KT 26/12 A3001 RMK A01 T02610122  RH  042%=      5-min Rain = 0
KNH1 060701Z 19008KT 26/12 A3001 RMK A01 T02610122  RH  042%=      5-min Rain = 0
KNH1 060702Z 19008KT 26/12 A3001 RMK A01 T02610121  RH  042%=      5-min Rain = 0
KNH1 060703Z 19007KT 26/12 A3001 RMK A01 T02610121  RH  042%=      5-min Rain = 0
KNH1 060704Z 20007KT 26/12 A3001 RMK A01 T02620121  RH  042%=      5-min Rain = 0
KNH1 060705Z 19007KT 26/12 A3001 RMK A01 T02620122  RH  042%=      5-min Rain = 0
KNH1 060706Z 20007KT 26/12 A3001 RMK A01 T02610122  RH  042%=      5-min Rain = 0
KNH1 060707Z 19007KT 26/12 A3001 RMK A01 T02600122  RH  042%=      5-min Rain = 0
KNH1 060708Z 19007KT 26/12 A3001 RMK A01 T02600122  RH  042%=      5-min Rain = 0
KNH1 060709Z 19007KT 26/12 A3001 RMK A01 T02600123  RH  042%=      5-min Rain = 0
KNH1 060710Z 19007KT 26/12 A3001 RMK A01 T02590122  RH  043%=      5-min Rain = 0
KNH1 060711Z 19006KT 26/12 A3001 RMK A01 T02590123  RH  043%=      5-min Rain = 0
KNH1 060712Z 19007KT 26/12 A3001 RMK A01 T02590123  RH  043%=      5-min Rain = 0
KNH1 060713Z 20007KT 26/12 A3001 RMK A01 T02590123  RH  043%=      5-min Rain = 0
KNH1 060714Z 20006KT 26/12 A3001 RMK A01 T02590123  RH  043%=      5-min Rain = 0
KNH1 060715Z 20007KT 26/12 A3001 RMK A01 T02580123  RH  043%=      5-min Rain = 0
KNH1 060716Z 20007KT 26/12 A3001 RMK A01 T02580124  RH  043%=      5-min Rain = 0
KNH1 060717Z 20007KT 26/12 A3001 RMK A01 T02580124  RH  043%=      5-min Rain = 0
KNH1 060718Z 21007KT 26/12 A3002 RMK A01 T02570124  RH  044%=      5-min Rain = 0
KNH1 060719Z 21006KT 26/12 A3002 RMK A01 T02570124  RH  044%=      5-min Rain = 0
KNH1 060720Z 21006KT 26/12 A3002 RMK A01 T02560124  RH  044%=      5-min Rain = 0
KNH1 060721Z 21007KT 26/12 A3002 RMK A01 T02560123  RH  044%=      5-min Rain = 0
KNH1 060722Z 21006KT 26/12 A3002 RMK A01 T02560123  RH  044%=      5-min Rain = 0
KNH1 060723Z 21006KT 26/12 A3002 RMK A01 T02560124  RH  044%=      5-min Rain = 0
KNH1 060724Z 21006KT 26/12 A3002 RMK A01 T02560124  RH  044%=      5-min Rain = 0
KNH1 060725Z 21006KT 26/12 A3002 RMK A01 T02560124  RH  044%=      5-min Rain = 0
KNH1 060726Z 20006KT 26/12 A3002 RMK A01 T02560124  RH  044%=      5-min Rain = 0
KNH1 060727Z 20006KT 26/12 A3002 RMK A01 T02550123  RH  044%=      5-min Rain = 0
KNH1 060728Z 20007KT 26/12 A3002 RMK A01 T02560123  RH  044%=      5-min Rain = 0
KNH1 060729Z 20006KT 26/12 A3002 RMK A01 T02560123  RH  044%=      5-min Rain = 0
KNH1 060730Z 20007KT 26/12 A3002 RMK A01 T02560123  RH  044%=      5-min Rain = 0
KNH1 060731Z 20007KT 26/12 A3002 RMK A01 T02560122  RH  043%=      5-min Rain = 0
KNH1 060732Z 19007KT 26/12 A3002 RMK A01 T02560122  RH  043%=      5-min Rain = 0
KNH1 060733Z 19007KT 26/12 A3002 RMK A01 T02550122  RH  043%=      5-min Rain = 0
KNH1 060734Z 19006KT 26/12 A3002 RMK A01 T02560123  RH  043%=      5-min Rain = 0
KNH1 060735Z 19007KT 26/12 A3002 RMK A01 T02560123  RH  044%=      5-min Rain = 0
KNH1 060736Z 20007KT 26/12 A3002 RMK A01 T02560122  RH  043%=      5-min Rain = 0
KNH1 060737Z 20006KT 26/12 A3002 RMK A01 T02560122  RH  043%=      5-min Rain = 0
KNH1 060738Z 20006KT 26/12 A3002 RMK A01 T02560122  RH  043%=      5-min Rain = 0
KNH1 060739Z 20006KT 26/12 A3002 RMK A01 T02550122  RH  043%=      5-min Rain = 0
KNH1 060740Z 20007KT 26/12 A3002 RMK A01 T02550122  RH  044%=      5-min Rain = 0
KNH1 060741Z 19007KT 26/12 A3002 RMK A01 T02550122  RH  044%=      5-min Rain = 0
KNH1 060742Z 20006KT 26/12 A3002 RMK A01 T02550122  RH  044%=      5-min Rain = 0
KNH1 060743Z 19006KT 26/12 A3002 RMK A01 T02550122  RH  044%=      5-min Rain = 0
KNH1 060744Z 19006KT 26/12 A3002 RMK A01 T02550122  RH  044%=      5-min Rain = 0
KNH1 060745Z 19006KT 26/12 A3002 RMK A01 T02550122  RH  044%=      5-min Rain = 0
KNH1 060746Z 19006KT 25/12 A3002 RMK A01 T02540122  RH  044%=      5-min Rain = 0
KNH1 060747Z 19006KT 25/12 A3002 RMK A01 T02540123  RH  044%=      5-min Rain = 0
KNH1 060748Z 19007KT 25/12 A3002 RMK A01 T02530123  RH  044%=      5-min Rain = 0
KNH1 060749Z 19006KT 25/12 A3002 RMK A01 T02530123  RH  044%=      5-min Rain = 0
KNH1 060750Z 18005KT 25/12 A3002 RMK A01 T02520123  RH  045%=      5-min Rain = 0
KNH1 060751Z 18005KT 25/12 A3002 RMK A01 T02530124  RH  045%=      5-min Rain = 0
KNH1 060752Z 18006KT 25/12 A3002 RMK A01 T02520124  RH  045%=      5-min Rain = 0
KNH1 060753Z 18006KT 25/12 A3002 RMK A01 T02520123  RH  045%=      5-min Rain = 0
KNH1 060754Z 19006KT 25/12 A3002 RMK A01 T02520123  RH  045%=      5-min Rain = 0
KNH1 060755Z 19006KT 25/12 A3002 RMK A01 T02520124  RH  045%=      5-min Rain = 0
KNH1 060756Z 19006KT 25/12 A3002 RMK A01 T02510124  RH  045%=      5-min Rain = 0
KNH1 060757Z 19006KT 25/12 A3002 RMK A01 T02500124  RH  045%=      5-min Rain = 0
KNH1 060758Z 19007KT 25/12 A3002 RMK A01 T02500124  RH  045%=      5-min Rain = 0
KNH1 060759Z 19007KT 25/12 A3002 RMK A01 T02500124  RH  045%=      5-min Rain = 0
KNH1 060800Z 19007KT 25/12 A3002 RMK A01 T02500124  RH  045%=      5-min Rain = 0
KNH1 060801Z 19007KT 25/12 A3001 RMK A01 T02500124  RH  046%=      5-min Rain = 0
KNH1 060802Z 19006KT 25/12 A3001 RMK A01 T02490124  RH  046%=      5-min Rain = 0
KNH1 060803Z 19007KT 25/12 A3001 RMK A01 T02500124  RH  046%=      5-min Rain = 0
KNH1 060804Z 18006KT 25/12 A3001 RMK A01 T02500124  RH  045%=      5-min Rain = 0
KNH1 060805Z 19008KT 25/12 A3001 RMK A01 T02500124  RH  045%=      5-min Rain = 0
KNH1 060806Z 19008KT 25/12 A3001 RMK A01 T02500124  RH  045%=      5-min Rain = 0
KNH1 060807Z 18007KT 25/12 A3001 RMK A01 T02500124  RH  045%=      5-min Rain = 0
KNH1 060808Z 18007KT 25/12 A3001 RMK A01 T02500124  RH  045%=      5-min Rain = 0
KNH1 060809Z 18006KT 25/12 A3001 RMK A01 T02500124  RH  045%=      5-min Rain = 0
KNH1 060810Z 18006KT 25/12 A3001 RMK A01 T02510124  RH  045%=      5-min Rain = 0
KNH1 060811Z 18007KT 25/12 A3001 RMK A01 T02500124  RH  045%=      5-min Rain = 0
KNH1 060812Z 17007KT 25/12 A3001 RMK A01 T02510124  RH  045%=      5-min Rain = 0
KNH1 060813Z 17006KT 25/12 A3001 RMK A01 T02500124  RH  045%=      5-min Rain = 0
KNH1 060814Z 17005KT 25/13 A3001 RMK A01 T02510125  RH  045%=      5-min Rain = 0
KNH1 060815Z 18006KT 25/13 A3001 RMK A01 T02510126  RH  046%=      5-min Rain = 0
KNH1 060816Z 18006KT 25/13 A3001 RMK A01 T02500126  RH  046%=      5-min Rain = 0
KNH1 060817Z 18007KT 25/13 A3001 RMK A01 T02500125  RH  046%=      5-min Rain = 0
KNH1 060818Z 18006KT 25/13 A3001 RMK A01 T02500126  RH  046%=      5-min Rain = 0
KNH1 060819Z 18007KT 25/13 A3001 RMK A01 T02490125  RH  046%=      5-min Rain = 0
KNH1 060820Z 18006KT 25/13 A3001 RMK A01 T02490125  RH  046%=      5-min Rain = 0
KNH1 060821Z 18007KT 25/13 A3001 RMK A01 T02500125  RH  046%=      5-min Rain = 0
KNH1 060822Z 19007KT 25/13 A3001 RMK A01 T02500125  RH  046%=      5-min Rain = 0
KNH1 060823Z 19007KT 25/13 A3001 RMK A01 T02500125  RH  046%=      5-min Rain = 0
KNH1 060824Z 19007KT 25/13 A3001 RMK A01 T02500125  RH  046%=      5-min Rain = 0
KNH1 060825Z 19007KT 25/13 A3001 RMK A01 T02490125  RH  046%=      5-min Rain = 0
KNH1 060826Z 19008KT 25/13 A3001 RMK A01 T02490125  RH  046%=      5-min Rain = 0
KNH1 060827Z 19008KT 25/13 A3001 RMK A01 T02490126  RH  046%=      5-min Rain = 0
KNH1 060828Z 19008KT 25/13 A3001 RMK A01 T02490125  RH  046%=      5-min Rain = 0
KNH1 060829Z 19009KT 25/13 A3001 RMK A01 T02490125  RH  046%=      5-min Rain = 0
KNH1 060830Z 19008KT 25/13 A3001 RMK A01 T02500126  RH  046%=      5-min Rain = 0
KNH1 060831Z 19008KT 25/13 A3001 RMK A01 T02500126  RH  046%=      5-min Rain = 0
KNH1 060832Z 19008KT 25/13 A3001 RMK A01 T02500126  RH  046%=      5-min Rain = 0
KNH1 060833Z 19008KT 25/13 A3001 RMK A01 T02500126  RH  046%=      5-min Rain = 0
KNH1 060834Z 20008KT 25/13 A3001 RMK A01 T02500126  RH  046%=      5-min Rain = 0
KNH1 060835Z 20008KT 25/13 A3001 RMK A01 T02500127  RH  046%=      5-min Rain = 0
KNH1 060836Z 19008KT 25/13 A3001 RMK A01 T02500127  RH  046%=      5-min Rain = 0
KNH1 060837Z 20008KT 25/13 A3001 RMK A01 T02500127  RH  046%=      5-min Rain = 0
KNH1 060838Z 19009KT 25/13 A3001 RMK A01 T02510127  RH  046%=      5-min Rain = 0
KNH1 060839Z 19008KT 25/13 A3001 RMK A01 T02510127  RH  046%=      5-min Rain = 0
KNH1 060840Z 20009KT 25/13 A3001 RMK A01 T02520127  RH  046%=      5-min Rain = 0
KNH1 060841Z 19009KT 25/13 A3001 RMK A01 T02520127  RH  046%=      5-min Rain = 0
KNH1 060842Z 19009KT 25/13 A3001 RMK A01 T02530127  RH  045%=      5-min Rain = 0
KNH1 060843Z 19009KT 25/13 A3001 RMK A01 T02530126  RH  045%=      5-min Rain = 0
KNH1 060844Z 19009KT 25/13 A3001 RMK A01 T02540127  RH  045%=      5-min Rain = 0
KNH1 060845Z 20010KT 26/13 A3001 RMK A01 T02550127  RH  045%=      5-min Rain = 0
KNH1 060846Z 20009KT 26/13 A3001 RMK A01 T02550126  RH  045%=      5-min Rain = 0
KNH1 060847Z 20009KT 26/13 A3001 RMK A01 T02550127  RH  045%=      5-min Rain = 0
KNH1 060848Z 20009KT 26/13 A3001 RMK A01 T02550127  RH  045%=      5-min Rain = 0
KNH1 060849Z 20009KT 26/13 A3001 RMK A01 T02550127  RH  045%=      5-min Rain = 0
KNH1 060850Z 20010KT 26/13 A3001 RMK A01 T02550127  RH  045%=      5-min Rain = 0
KNH1 060851Z 20010KT 26/13 A3001 RMK A01 T02550127  RH  045%=      5-min Rain = 0
KNH1 060852Z 20010KT 26/13 A3001 RMK A01 T02550127  RH  045%=      5-min Rain = 0
KNH1 060853Z 19009KT 26/13 A3001 RMK A01 T02560127  RH  045%=      5-min Rain = 0
KNH1 060854Z 20010KT 26/13 A3001 RMK A01 T02560127  RH  045%=      5-min Rain = 0
KNH1 060855Z 20009KT 26/13 A3001 RMK A01 T02560128  RH  045%=      5-min Rain = 0
KNH1 060856Z 19010KT 26/13 A3001 RMK A01 T02560128  RH  045%=      5-min Rain = 0
KNH1 060857Z 20010KT 26/13 A3001 RMK A01 T02560128  RH  045%=      5-min Rain = 0
KNH1 060858Z 20010KT 26/13 A3001 RMK A01 T02560128  RH  045%=      5-min Rain = 0
KNH1 060859Z 20009KT 26/13 A3001 RMK A01 T02570128  RH  045%=      5-min Rain = 0
KNH1 060900Z 20009KT 26/13 A3001 RMK A01 T02570129  RH  045%=      5-min Rain = 0
KNH1 060901Z 20010KT 26/13 A3001 RMK A01 T02560129  RH  045%=      5-min Rain = 0
KNH1 060902Z 20009KT 26/13 A3001 RMK A01 T02570129  RH  045%=      5-min Rain = 0
KNH1 060903Z 20010KT 26/13 A3001 RMK A01 T02560129  RH  045%=      5-min Rain = 0
KNH1 060904Z 20008KT 26/13 A3001 RMK A01 T02570129  RH  045%=      5-min Rain = 0
KNH1 060905Z 20009KT 26/13 A3001 RMK A01 T02560129  RH  045%=      5-min Rain = 0
KNH1 060906Z 20009KT 26/13 A3001 RMK A01 T02560129  RH  045%=      5-min Rain = 0
KNH1 060907Z 20009KT 26/13 A3001 RMK A01 T02560130  RH  045%=      5-min Rain = 0
KNH1 060908Z 20011KT 26/13 A3001 RMK A01 T02560130  RH  045%=      5-min Rain = 0
KNH1 060909Z 20010KT 26/13 A3001 RMK A01 T02560130  RH  045%=      5-min Rain = 0
KNH1 060910Z 20009KT 26/13 A3001 RMK A01 T02570130  RH  045%=      5-min Rain = 0
KNH1 060911Z 20009KT 26/13 A3001 RMK A01 T02560129  RH  045%=      5-min Rain = 0
KNH1 060912Z 20011KT 26/13 A3001 RMK A01 T02570130  RH  045%=      5-min Rain = 0
KNH1 060913Z 20010KT 26/13 A3001 RMK A01 T02570130  RH  045%=      5-min Rain = 0
KNH1 060914Z 20009KT 26/13 A3001 RMK A01 T02570130  RH  045%=      5-min Rain = 0
KNH1 060915Z 20010KT 26/13 A3001 RMK A01 T02570131  RH  046%=      5-min Rain = 0
KNH1 060916Z 20010KT 26/13 A3001 RMK A01 T02570131  RH  046%=      5-min Rain = 0
KNH1 060917Z 20008KT 26/13 A3001 RMK A01 T02560131  RH  046%=      5-min Rain = 0
KNH1 060918Z 19009KT 26/13 A3001 RMK A01 T02560132  RH  046%=      5-min Rain = 0
KNH1 060919Z 19009KT 26/13 A3001 RMK A01 T02560132  RH  046%=      5-min Rain = 0
KNH1 060920Z 19009KT 26/13 A3001 RMK A01 T02560132  RH  046%=      5-min Rain = 0
KNH1 060921Z 19009KT 26/13 A3001 RMK A01 T02560132  RH  046%=      5-min Rain = 0
KNH1 060922Z 19010KT 26/13 A3001 RMK A01 T02560133  RH  046%=      5-min Rain = 0
KNH1 060923Z 19010KT 26/13 A3001 RMK A01 T02560133  RH  046%=      5-min Rain = 0
KNH1 060924Z 19009KT 26/13 A3001 RMK A01 T02560133  RH  047%=      5-min Rain = 0
KNH1 060925Z 19009KT 26/13 A3001 RMK A01 T02550133  RH  047%=      5-min Rain = 0
KNH1 060926Z 19009KT 26/13 A3001 RMK A01 T02550133  RH  047%=      5-min Rain = 0
KNH1 060927Z 19008KT 25/13 A3001 RMK A01 T02540133  RH  047%=      5-min Rain = 0
KNH1 060928Z 19008KT 25/13 A3001 RMK A01 T02540133  RH  047%=      5-min Rain = 0
KNH1 060929Z 19009KT 25/13 A3001 RMK A01 T02540134  RH  047%=      5-min Rain = 0
KNH1 060930Z 19009KT 25/13 A3001 RMK A01 T02520133  RH  048%=      5-min Rain = 0
KNH1 060931Z 19010KT 25/13 A3001 RMK A01 T02530134  RH  048%=      5-min Rain = 0
KNH1 060932Z 19010KT 25/13 A3001 RMK A01 T02520133  RH  048%=      5-min Rain = 0
KNH1 060933Z 19009KT 25/13 A3001 RMK A01 T02530134  RH  048%=      5-min Rain = 0
KNH1 060934Z 19009KT 25/13 A3001 RMK A01 T02520133  RH  048%=      5-min Rain = 0
KNH1 060935Z 20009KT 25/13 A3001 RMK A01 T02520133  RH  048%=      5-min Rain = 0
KNH1 060936Z 19009KT 25/13 A3001 RMK A01 T02520133  RH  048%=      5-min Rain = 0
KNH1 060937Z 19009KT 25/13 A3001 RMK A01 T02520133  RH  048%=      5-min Rain = 0
KNH1 060938Z 19007KT 25/13 A3001 RMK A01 T02510133  RH  048%=      5-min Rain = 0
KNH1 060939Z 20009KT 25/13 A3001 RMK A01 T02510133  RH  048%=      5-min Rain = 0
KNH1 060940Z 20009KT 25/13 A3001 RMK A01 T02510133  RH  048%=      5-min Rain = 0
KNH1 060941Z 20007KT 25/13 A3001 RMK A01 T02500133  RH  048%=      5-min Rain = 0
KNH1 060942Z 19008KT 25/13 A3001 RMK A01 T02500133  RH  048%=      5-min Rain = 0
KNH1 060943Z 19008KT 25/13 A3001 RMK A01 T02500134  RH  048%=      5-min Rain = 0
KNH1 060944Z 20008KT 25/13 A3001 RMK A01 T02500134  RH  048%=      5-min Rain = 0
KNH1 060945Z 20008KT 25/13 A3001 RMK A01 T02490134  RH  049%=      5-min Rain = 0
KNH1 060946Z 20008KT 25/13 A3001 RMK A01 T02490134  RH  049%=      5-min Rain = 0
KNH1 060947Z 19007KT 25/14 A3001 RMK A01 T02490135  RH  049%=      5-min Rain = 0
KNH1 060948Z 19007KT 25/14 A3001 RMK A01 T02480135  RH  049%=      5-min Rain = 0
KNH1 060949Z 19007KT 25/14 A3001 RMK A01 T02480135  RH  049%=      5-min Rain = 0
KNH1 060950Z 19007KT 25/14 A3001 RMK A01 T02480135  RH  049%=      5-min Rain = 0
KNH1 060951Z 19008KT 25/14 A3001 RMK A01 T02480135  RH  049%=      5-min Rain = 0
KNH1 060952Z 19007KT 25/14 A3001 RMK A01 T02480135  RH  050%=      5-min Rain = 0
KNH1 060953Z 19008KT 25/14 A3001 RMK A01 T02480136  RH  050%=      5-min Rain = 0
KNH1 060954Z 19008KT 25/14 A3001 RMK A01 T02480136  RH  050%=      5-min Rain = 0
KNH1 060955Z 19007KT 25/14 A3001 RMK A01 T02480136  RH  050%=      5-min Rain = 0
KNH1 060956Z 20007KT 25/14 A3001 RMK A01 T02480136  RH  050%=      5-min Rain = 0
KNH1 060957Z 19008KT 25/14 A3001 RMK A01 T02480137  RH  050%=      5-min Rain = 0
KNH1 060958Z 19007KT 25/14 A3001 RMK A01 T02480137  RH  050%=      5-min Rain = 0
KNH1 060959Z 19008KT 25/14 A3002 RMK A01 T02470137  RH  050%=      5-min Rain = 0
KNH1 061000Z 19008KT 25/14 A3002 RMK A01 T02470137  RH  050%=      5-min Rain = 0
KNH1 061001Z 19007KT 25/14 A3002 RMK A01 T02470138  RH  050%=      5-min Rain = 0
KNH1 061002Z 19007KT 25/14 A3002 RMK A01 T02470138  RH  051%=      5-min Rain = 0
KNH1 061003Z 19007KT 25/14 A3002 RMK A01 T02470138  RH  051%=      5-min Rain = 0
KNH1 061004Z 19008KT 25/14 A3002 RMK A01 T02470138  RH  051%=      5-min Rain = 0
KNH1 061005Z 20008KT 25/14 A3002 RMK A01 T02470139  RH  051%=      5-min Rain = 0
KNH1 061006Z 20008KT 25/14 A3002 RMK A01 T02470138  RH  051%=      5-min Rain = 0
KNH1 061007Z 20007KT 25/14 A3002 RMK A01 T02470139  RH  051%=      5-min Rain = 0
KNH1 061008Z 20008KT 25/14 A3002 RMK A01 T02470139  RH  051%=      5-min Rain = 0
KNH1 061009Z 20008KT 25/14 A3002 RMK A01 T02470139  RH  051%=      5-min Rain = 0
KNH1 061010Z 20008KT 25/14 A3002 RMK A01 T02470139  RH  051%=      5-min Rain = 0
KNH1 061011Z 20008KT 25/14 A3002 RMK A01 T02470140  RH  051%=      5-min Rain = 0
KNH1 061012Z 20008KT 25/14 A3002 RMK A01 T02470140  RH  051%=      5-min Rain = 0
KNH1 061013Z 21008KT 25/14 A3002 RMK A01 T02470140  RH  051%=      5-min Rain = 0
KNH1 061014Z 21007KT 25/14 A3002 RMK A01 T02470140  RH  051%=      5-min Rain = 0
KNH1 061015Z 21008KT 25/14 A3002 RMK A01 T02470140  RH  051%=      5-min Rain = 0
KNH1 061016Z 21008KT 25/14 A3002 RMK A01 T02470140  RH  051%=      5-min Rain = 0
KNH1 061017Z 20008KT 25/14 A3002 RMK A01 T02470140  RH  051%=      5-min Rain = 0
KNH1 061018Z 20007KT 25/14 A3002 RMK A01 T02470141  RH  052%=      5-min Rain = 0
KNH1 061019Z 20008KT 25/14 A3002 RMK A01 T02470141  RH  052%=      5-min Rain = 0
KNH1 061020Z 20008KT 25/14 A3002 RMK A01 T02460141  RH  052%=      5-min Rain = 0
KNH1 061021Z 20008KT 25/14 A3002 RMK A01 T02460140  RH  052%=      5-min Rain = 0
KNH1 061022Z 20009KT 25/14 A3002 RMK A01 T02470140  RH  051%=      5-min Rain = 0
KNH1 061023Z 20008KT 25/14 A3002 RMK A01 T02470140  RH  051%=      5-min Rain = 0
KNH1 061024Z 20009KT 25/14 A3002 RMK A01 T02480141  RH  051%=      5-min Rain = 0
KNH1 061025Z 20009KT 25/14 A3002 RMK A01 T02480141  RH  051%=      5-min Rain = 0
KNH1 061026Z 20009KT 25/14 A3002 RMK A01 T02480141  RH  051%=      5-min Rain = 0
KNH1 061027Z 20009KT 25/14 A3002 RMK A01 T02480141  RH  051%=      5-min Rain = 0
KNH1 061028Z 20009KT 25/14 A3002 RMK A01 T02480141  RH  051%=      5-min Rain = 0
KNH1 061029Z 20009KT 25/14 A3002 RMK A01 T02480141  RH  051%=      5-min Rain = 0
KNH1 061030Z 20009KT 25/14 A3002 RMK A01 T02480141  RH  051%=      5-min Rain = 0
KNH1 061031Z 20008KT 25/14 A3002 RMK A01 T02490141  RH  051%=      5-min Rain = 0
KNH1 061032Z 20009KT 25/14 A3002 RMK A01 T02490142  RH  051%=      5-min Rain = 0
KNH1 061033Z 20010KT 25/14 A3002 RMK A01 T02490142  RH  051%=      5-min Rain = 0
KNH1 061034Z 20009KT 25/14 A3002 RMK A01 T02490142  RH  051%=      5-min Rain = 0
KNH1 061035Z 20009KT 25/14 A3002 RMK A01 T02490142  RH  051%=      5-min Rain = 0
KNH1 061036Z 20010KT 25/14 A3002 RMK A01 T02490142  RH  051%=      5-min Rain = 0
KNH1 061037Z 20009KT 25/14 A3002 RMK A01 T02490142  RH  051%=      5-min Rain = 0
KNH1 061038Z 20010KT 25/14 A3002 RMK A01 T02490143  RH  051%=      5-min Rain = 0
KNH1 061039Z 20010KT 25/14 A3002 RMK A01 T02490143  RH  052%=      5-min Rain = 0
KNH1 061040Z 20009KT 25/14 A3002 RMK A01 T02490143  RH  052%=      5-min Rain = 0
KNH1 061041Z 19009KT 25/14 A3002 RMK A01 T02490143  RH  052%=      5-min Rain = 0
KNH1 061042Z 20011KT 25/14 A3002 RMK A01 T02490143  RH  052%=      5-min Rain = 0
KNH1 061043Z 20011KT 25/14 A3002 RMK A01 T02500143  RH  051%=      5-min Rain = 0
KNH1 061044Z 20010KT 25/14 A3002 RMK A01 T02500143  RH  051%=      5-min Rain = 0
KNH1 061045Z 20010KT 25/14 A3002 RMK A01 T02500143  RH  051%=      5-min Rain = 0
KNH1 061046Z 20010KT 25/14 A3002 RMK A01 T02500144  RH  052%=      5-min Rain = 0
KNH1 061047Z 20010KT 25/14 A3002 RMK A01 T02500144  RH  052%=      5-min Rain = 0
KNH1 061048Z 20010KT 25/14 A3002 RMK A01 T02500144  RH  052%=      5-min Rain = 0
KNH1 061049Z 20010KT 25/14 A3002 RMK A01 T02500144  RH  052%=      5-min Rain = 0
KNH1 061050Z 20009KT 25/14 A3002 RMK A01 T02500144  RH  052%=      5-min Rain = 0
KNH1 061051Z 20010KT 25/14 A3002 RMK A01 T02500144  RH  052%=      5-min Rain = 0
KNH1 061052Z 20010KT 25/14 A3002 RMK A01 T02500144  RH  052%=      5-min Rain = 0
KNH1 061053Z 20009KT 25/14 A3002 RMK A01 T02500144  RH  052%=      5-min Rain = 0
KNH1 061054Z 20010KT 25/14 A3002 RMK A01 T02500144  RH  052%=      5-min Rain = 0
KNH1 061055Z 20009KT 25/14 A3002 RMK A01 T02490144  RH  052%=      5-min Rain = 0
KNH1 061056Z 20008KT 25/14 A3002 RMK A01 T02490144  RH  052%=      5-min Rain = 0
KNH1 061057Z 19009KT 25/14 A3002 RMK A01 T02480144  RH  052%=      5-min Rain = 0
KNH1 061058Z 20008KT 25/14 A3002 RMK A01 T02480144  RH  052%=      5-min Rain = 0
KNH1 061059Z 19008KT 25/14 A3002 RMK A01 T02480144  RH  053%=      5-min Rain = 0
KNH1 061100Z 19008KT 25/14 A3002 RMK A01 T02480144  RH  053%=      5-min Rain = 0
KNH1 061101Z 19008KT 25/14 A3002 RMK A01 T02470144  RH  053%=      5-min Rain = 0
KNH1 061102Z 19008KT 25/14 A3002 RMK A01 T02470144  RH  053%=      5-min Rain = 0
KNH1 061103Z 19009KT 25/15 A3002 RMK A01 T02470145  RH  053%=      5-min Rain = 0
KNH1 061104Z 19008KT 25/15 A3002 RMK A01 T02470145  RH  053%=      5-min Rain = 0
KNH1 061105Z 19008KT 25/15 A3002 RMK A01 T02460145  RH  053%=      5-min Rain = 0
KNH1 061106Z 19008KT 25/15 A3002 RMK A01 T02460145  RH  053%=      5-min Rain = 0
KNH1 061107Z 19008KT 25/15 A3002 RMK A01 T02460145  RH  053%=      5-min Rain = 0
KNH1 061108Z 19009KT 25/15 A3002 RMK A01 T02460145  RH  053%=      5-min Rain = 0
KNH1 061109Z 19008KT 25/15 A3002 RMK A01 T02460145  RH  054%=      5-min Rain = 0
KNH1 061110Z 19008KT 25/15 A3002 RMK A01 T02450145  RH  054%=      5-min Rain = 0
KNH1 061111Z 19008KT 25/15 A3002 RMK A01 T02450145  RH  054%=      5-min Rain = 0
KNH1 061112Z 18009KT 24/15 A3002 RMK A01 T02440145  RH  054%=      5-min Rain = 0
KNH1 061113Z 18008KT 24/15 A3002 RMK A01 T02440146  RH  054%=      5-min Rain = 0
KNH1 061114Z 18009KT 24/15 A3002 RMK A01 T02430145  RH  054%=      5-min Rain = 0
KNH1 061115Z 18008KT 24/15 A3002 RMK A01 T02440146  RH  054%=      5-min Rain = 0
KNH1 061116Z 18008KT 24/15 A3002 RMK A01 T02440146  RH  054%=      5-min Rain = 0
KNH1 061117Z 19008KT 24/15 A3002 RMK A01 T02440146  RH  054%=      5-min Rain = 0
KNH1 061118Z 19009KT 24/15 A3002 RMK A01 T02440146  RH  054%=      5-min Rain = 0
KNH1 061119Z 18009KT 24/15 A3002 RMK A01 T02440145  RH  054%=      5-min Rain = 0
KNH1 061120Z 19009KT 24/15 A3002 RMK A01 T02440145  RH  054%=      5-min Rain = 0
KNH1 061121Z 19009KT 24/15 A3002 RMK A01 T02440145  RH  054%=      5-min Rain = 0
KNH1 061122Z 19008KT 24/15 A3002 RMK A01 T02440145  RH  054%=      5-min Rain = 0
KNH1 061123Z 19009KT 24/15 A3002 RMK A01 T02440145  RH  054%=      5-min Rain = 0
KNH1 061124Z 18009KT 24/15 A3003 RMK A01 T02430145  RH  054%=      5-min Rain = 0
KNH1 061125Z 19010KT 24/15 A3003 RMK A01 T02430145  RH  054%=      5-min Rain = 0
KNH1 061126Z 19010KT 24/15 A3003 RMK A01 T02430145  RH  054%=      5-min Rain = 0
KNH1 061127Z 19009KT 24/15 A3003 RMK A01 T02430145  RH  054%=      5-min Rain = 0
KNH1 061128Z 19010KT 24/15 A3003 RMK A01 T02430145  RH  054%=      5-min Rain = 0
KNH1 061129Z 19010KT 24/15 A3003 RMK A01 T02430145  RH  054%=      5-min Rain = 0
KNH1 061130Z 19009KT 24/15 A3003 RMK A01 T02430145  RH  054%=      5-min Rain = 0
KNH1 061131Z 19009KT 24/15 A3003 RMK A01 T02430145  RH  054%=      5-min Rain = 0
KNH1 061132Z 19009KT 24/15 A3003 RMK A01 T02430145  RH  054%=      5-min Rain = 0
KNH1 061133Z 18011KT 24/15 A3003 RMK A01 T02430145  RH  054%=      5-min Rain = 0
KNH1 061134Z 18010KT 24/15 A3003 RMK A01 T02440145  RH  054%=      5-min Rain = 0
KNH1 061135Z 19010KT 24/15 A3003 RMK A01 T02440145  RH  054%=      5-min Rain = 0
KNH1 061136Z 18009KT 24/15 A3003 RMK A01 T02440145  RH  054%=      5-min Rain = 0
KNH1 061137Z 18010KT 24/15 A3003 RMK A01 T02440145  RH  054%=      5-min Rain = 0
KNH1 061138Z 18009KT 24/15 A3003 RMK A01 T02440145  RH  054%=      5-min Rain = 0
KNH1 061139Z 19009KT 24/15 A3003 RMK A01 T02440145  RH  054%=      5-min Rain = 0
KNH1 061140Z 18009KT 24/15 A3003 RMK A01 T02440145  RH  054%=      5-min Rain = 0
KNH1 061141Z 18009KT 24/15 A3003 RMK A01 T02430145  RH  054%=      5-min Rain = 0
KNH1 061142Z 18011KT 24/15 A3003 RMK A01 T02430145  RH  054%=      5-min Rain = 0
KNH1 061143Z 19009KT 24/14 A3003 RMK A01 T02430144  RH  054%=      5-min Rain = 0
KNH1 061144Z 18010KT 24/15 A3003 RMK A01 T02430145  RH  054%=      5-min Rain = 0
KNH1 061145Z 18009KT 24/15 A3003 RMK A01 T02430145  RH  054%=      5-min Rain = 0
KNH1 061146Z 18009KT 24/15 A3003 RMK A01 T02430145  RH  054%=      5-min Rain = 0
KNH1 061147Z 18009KT 24/15 A3003 RMK A01 T02430145  RH  054%=      5-min Rain = 0
KNH1 061148Z 18008KT 24/15 A3003 RMK A01 T02430145  RH  055%=      5-min Rain = 0
KNH1 061149Z 18010KT 24/15 A3003 RMK A01 T02420145  RH  055%=      5-min Rain = 0
KNH1 061150Z 18009KT 24/15 A3003 RMK A01 T02420145  RH  055%=      5-min Rain = 0
KNH1 061151Z 18009KT 24/15 A3004 RMK A01 T02420145  RH  055%=      5-min Rain = 0
KNH1 061152Z 18009KT 24/15 A3004 RMK A01 T02420145  RH  055%=      5-min Rain = 0
KNH1 061153Z 19009KT 24/15 A3004 RMK A01 T02420146  RH  055%=      5-min Rain = 0
KNH1 061154Z 19009KT 24/15 A3004 RMK A01 T02420146  RH  055%=      5-min Rain = 0
KNH1 061155Z 19010KT 24/15 A3004 RMK A01 T02410146  RH  055%=      5-min Rain = 0
KNH1 061156Z 19010KT 24/15 A3004 RMK A01 T02410146  RH  055%=      5-min Rain = 0
KNH1 061157Z 19009KT 24/15 A3004 RMK A01 T02410146  RH  055%=      5-min Rain = 0
KNH1 061158Z 19010KT 24/15 A3004 RMK A01 T02410146  RH  055%=      5-min Rain = 0
KNH1 061159Z 19009KT 24/15 A3004 RMK A01 T02410146  RH  055%=      5-min Rain = 0
KNH1 061200Z 18010KT 24/15 A3004 RMK A01 T02410146  RH  055%=      5-min Rain = 0
KNH1 061201Z 18010KT 24/15 A3004 RMK A01 T02410146  RH  055%=      5-min Rain = 0
KNH1 061202Z 18009KT 24/15 A3004 RMK A01 T02410146  RH  056%=      5-min Rain = 0
KNH1 061203Z 18008KT 24/15 A3004 RMK A01 T02410147  RH  056%=      5-min Rain = 0
KNH1 061204Z 18008KT 24/15 A3004 RMK A01 T02410147  RH  056%=      5-min Rain = 0
KNH1 061205Z 18008KT 24/15 A3004 RMK A01 T02410147  RH  056%=      5-min Rain = 0
KNH1 061206Z 18009KT 24/15 A3004 RMK A01 T02410146  RH  055%=      5-min Rain = 0
KNH1 061207Z 18011KT 24/15 A3004 RMK A01 T02410146  RH  055%=      5-min Rain = 0
KNH1 061208Z 18009KT 24/15 A3004 RMK A01 T02410146  RH  055%=      5-min Rain = 0
KNH1 061209Z 18009KT 24/15 A3004 RMK A01 T02420147  RH  055%=      5-min Rain = 0
KNH1 061210Z 18010KT 24/15 A3004 RMK A01 T02410147  RH  055%=      5-min Rain = 0
KNH1 061211Z 18009KT 24/15 A3004 RMK A01 T02410147  RH  056%=      5-min Rain = 0
KNH1 061212Z 18009KT 24/15 A3004 RMK A01 T02410147  RH  056%=      5-min Rain = 0
KNH1 061213Z 18009KT 24/15 A3004 RMK A01 T02410148  RH  056%=      5-min Rain = 0
KNH1 061214Z 19009KT 24/15 A3004 RMK A01 T02410148  RH  056%=      5-min Rain = 0
KNH1 061215Z 18010KT 24/15 A3004 RMK A01 T02410148  RH  056%=      5-min Rain = 0
KNH1 061216Z 19008KT 24/15 A3004 RMK A01 T02410148  RH  056%=      5-min Rain = 0
KNH1 061217Z 18009KT 24/15 A3004 RMK A01 T02410148  RH  056%=      5-min Rain = 0
KNH1 061218Z 19008KT 24/15 A3004 RMK A01 T02410148  RH  056%=      5-min Rain = 0
KNH1 061219Z 18009KT 24/15 A3004 RMK A01 T02410148  RH  056%=      5-min Rain = 0
KNH1 061220Z 18010KT 24/15 A3004 RMK A01 T02410148  RH  056%=      5-min Rain = 0
KNH1 061221Z 18010KT 24/15 A3004 RMK A01 T02410148  RH  056%=      5-min Rain = 0
KNH1 061222Z 18009KT 24/15 A3004 RMK A01 T02410148  RH  056%=      5-min Rain = 0
KNH1 061223Z 19010KT 24/15 A3004 RMK A01 T02410148  RH  056%=      5-min Rain = 0
KNH1 061224Z 18009KT 24/15 A3004 RMK A01 T02410149  RH  056%=      5-min Rain = 0
KNH1 061225Z 19010KT 24/15 A3004 RMK A01 T02410149  RH  056%=      5-min Rain = 0
KNH1 061226Z 19010KT 24/15 A3004 RMK A01 T02410149  RH  056%=      5-min Rain = 0
KNH1 061227Z 18008KT 24/15 A3004 RMK A01 T02410149  RH  056%=      5-min Rain = 0
KNH1 061228Z 18009KT 24/15 A3004 RMK A01 T02410149  RH  057%=      5-min Rain = 0
KNH1 061229Z 19009KT 24/15 A3004 RMK A01 T02410149  RH  056%=      5-min Rain = 0
KNH1 061230Z 19009KT 24/15 A3004 RMK A01 T02410149  RH  056%=      5-min Rain = 0
KNH1 061231Z 19009KT 24/15 A3004 RMK A01 T02410149  RH  057%=      5-min Rain = 0
KNH1 061232Z 19009KT 24/15 A3005 RMK A01 T02410150  RH  057%=      5-min Rain = 0
KNH1 061233Z 19010KT 24/15 A3005 RMK A01 T02410150  RH  057%=      5-min Rain = 0
KNH1 061234Z 19009KT 24/15 A3005 RMK A01 T02410150  RH  057%=      5-min Rain = 0
KNH1 061235Z 19009KT 24/15 A3005 RMK A01 T02410150  RH  057%=      5-min Rain = 0
KNH1 061236Z 19010KT 24/15 A3005 RMK A01 T02410150  RH  057%=      5-min Rain = 0
KNH1 061237Z 19010KT 24/15 A3005 RMK A01 T02400150  RH  057%=      5-min Rain = 0
KNH1 061238Z 20009KT 24/15 A3005 RMK A01 T02410150  RH  057%=      5-min Rain = 0
KNH1 061239Z 19009KT 24/15 A3005 RMK A01 T02400150  RH  057%=      5-min Rain = 0
KNH1 061240Z 19009KT 24/15 A3005 RMK A01 T02400150  RH  057%=      5-min Rain = 0
KNH1 061241Z 19010KT 24/15 A3005 RMK A01 T02400150  RH  057%=      5-min Rain = 0
KNH1 061242Z 19009KT 24/15 A3005 RMK A01 T02400151  RH  057%=      5-min Rain = 0
KNH1 061243Z 19010KT 24/15 A3005 RMK A01 T02400151  RH  057%=      5-min Rain = 0
KNH1 061244Z 19009KT 24/15 A3005 RMK A01 T02410151  RH  057%=      5-min Rain = 0
KNH1 061245Z 19010KT 24/15 A3005 RMK A01 T02410152  RH  057%=      5-min Rain = 0
KNH1 061246Z 19010KT 24/15 A3005 RMK A01 T02400151  RH  057%=      5-min Rain = 0
KNH1 061247Z 19009KT 24/15 A3005 RMK A01 T02400151  RH  057%=      5-min Rain = 0
KNH1 061248Z 19009KT 24/15 A3005 RMK A01 T02400151  RH  057%=      5-min Rain = 0
KNH1 061249Z 19009KT 24/15 A3005 RMK A01 T02400151  RH  057%=      5-min Rain = 0
KNH1 061250Z 19011KT 24/15 A3005 RMK A01 T02410152  RH  057%=      5-min Rain = 0
KNH1 061251Z 19009KT 24/15 A3005 RMK A01 T02410152  RH  057%=      5-min Rain = 0
KNH1 061252Z 19009KT 24/15 A3005 RMK A01 T02410152  RH  058%=      5-min Rain = 0
KNH1 061253Z 19009KT 24/15 A3005 RMK A01 T02410152  RH  058%=      5-min Rain = 0
KNH1 061254Z 19008KT 24/15 A3005 RMK A01 T02410153  RH  058%=      5-min Rain = 0
KNH1 061255Z 19009KT 24/15 A3005 RMK A01 T02410153  RH  058%=      5-min Rain = 0
KNH1 061256Z 19010KT 24/15 A3005 RMK A01 T02410153  RH  058%=      5-min Rain = 0
KNH1 061257Z 19010KT 24/15 A3005 RMK A01 T02410153  RH  058%=      5-min Rain = 0
KNH1 061258Z 19009KT 24/15 A3005 RMK A01 T02410153  RH  058%=      5-min Rain = 0
KNH1 061259Z 19009KT 24/15 A3005 RMK A01 T02410153  RH  058%=      5-min Rain = 0
KNH1 061300Z 19010KT 24/15 A3005 RMK A01 T02410153  RH  058%=      5-min Rain = 0
KNH1 061301Z 19010KT 24/15 A3005 RMK A01 T02410153  RH  058%=      5-min Rain = 0
KNH1 061302Z 19010KT 24/15 A3005 RMK A01 T02410153  RH  058%=      5-min Rain = 0
KNH1 061303Z 19009KT 24/15 A3005 RMK A01 T02410153  RH  058%=      5-min Rain = 0
KNH1 061304Z 19010G15KT 24/15 A3005 RMK A01 T02410153  RH  058%=      5-min Rain = 0
KNH1 061305Z 19010KT 24/15 A3005 RMK A01 T02420153  RH  058%=      5-min Rain = 0
KNH1 061306Z 18009KT 24/15 A3005 RMK A01 T02420154  RH  058%=      5-min Rain = 0
KNH1 061307Z 19010KT 24/15 A3005 RMK A01 T02430154  RH  058%=      5-min Rain = 0
KNH1 061308Z 19010KT 24/15 A3005 RMK A01 T02430154  RH  057%=      5-min Rain = 0
KNH1 061309Z 19011KT 24/15 A3005 RMK A01 T02430154  RH  057%=      5-min Rain = 0
KNH1 061310Z 19011KT 24/15 A3005 RMK A01 T02440154  RH  057%=      5-min Rain = 0
KNH1 061311Z 19010KT 24/15 A3005 RMK A01 T02440154  RH  057%=      5-min Rain = 0
KNH1 061312Z 19010KT 24/15 A3005 RMK A01 T02440154  RH  057%=      5-min Rain = 0
KNH1 061313Z 19008KT 25/15 A3005 RMK A01 T02450154  RH  057%=      5-min Rain = 0
KNH1 061314Z 19008KT 25/16 A3005 RMK A01 T02450156  RH  057%=      5-min Rain = 0
KNH1 061315Z 19008KT 25/16 A3005 RMK A01 T02460156  RH  057%=      5-min Rain = 0
KNH1 061316Z 20008KT 25/16 A3005 RMK A01 T02470156  RH  057%=      5-min Rain = 0
KNH1 061317Z 19008KT 25/16 A3005 RMK A01 T02460156  RH  057%=      5-min Rain = 0
KNH1 061318Z 20010KT 25/16 A3005 RMK A01 T02470155  RH  057%=      5-min Rain = 0
KNH1 061319Z 19010KT 25/16 A3005 RMK A01 T02470155  RH  056%=      5-min Rain = 0
KNH1 061320Z 19009KT 25/16 A3005 RMK A01 T02480156  RH  057%=      5-min Rain = 0
KNH1 061321Z 20010KT 25/16 A3005 RMK A01 T02480155  RH  056%=      5-min Rain = 0
KNH1 061322Z 20009KT 25/16 A3005 RMK A01 T02480156  RH  056%=      5-min Rain = 0
KNH1 061323Z 20009KT 25/16 A3005 RMK A01 T02490157  RH  056%=      5-min Rain = 0
KNH1 061324Z 19010KT 25/16 A3005 RMK A01 T02500156  RH  056%=      5-min Rain = 0
KNH1 061325Z 19012KT 25/16 A3005 RMK A01 T02500155  RH  055%=      5-min Rain = 0
KNH1 061326Z 20010KT 25/16 A3005 RMK A01 T02510155  RH  055%=      5-min Rain = 0
KNH1 061327Z 19008KT 25/16 A3005 RMK A01 T02510157  RH  056%=      5-min Rain = 0
KNH1 061328Z 19009KT 25/16 A3005 RMK A01 T02520158  RH  056%=      5-min Rain = 0
KNH1 061329Z 20009KT 25/16 A3005 RMK A01 T02540158  RH  055%=      5-min Rain = 0
KNH1 061330Z 20008KT 25/16 A3005 RMK A01 T02540158  RH  055%=      5-min Rain = 0
KNH1 061331Z 20010KT 25/16 A3005 RMK A01 T02540158  RH  055%=      5-min Rain = 0
KNH1 061332Z 20011KT 25/16 A3005 RMK A01 T02540157  RH  055%=      5-min Rain = 0
KNH1 061333Z 19010KT 25/16 A3005 RMK A01 T02540156  RH  055%=      5-min Rain = 0
KNH1 061334Z 20009KT 26/16 A3005 RMK A01 T02550159  RH  055%=      5-min Rain = 0
KNH1 061335Z 19010KT 26/16 A3005 RMK A01 T02560159  RH  055%=      5-min Rain = 0
KNH1 061336Z 19011KT 26/16 A3005 RMK A01 T02560157  RH  054%=      5-min Rain = 0
KNH1 061337Z 19010KT 26/16 A3005 RMK A01 T02560158  RH  055%=      5-min Rain = 0
KNH1 061338Z 20011KT 26/16 A3005 RMK A01 T02560157  RH  054%=      5-min Rain = 0
KNH1 061339Z 20011KT 26/16 A3005 RMK A01 T02560158  RH  054%=      5-min Rain = 0
KNH1 061340Z 19010KT 26/16 A3005 RMK A01 T02560158  RH  055%=      5-min Rain = 0
KNH1 061341Z 20011KT 26/16 A3005 RMK A01 T02560158  RH  054%=      5-min Rain = 0
KNH1 061342Z 19009KT 26/16 A3005 RMK A01 T02570159  RH  055%=      5-min Rain = 0
KNH1 061343Z 20009KT 26/16 A3005 RMK A01 T02570160  RH  055%=      5-min Rain = 0
KNH1 061344Z 20010KT 26/16 A3005 RMK A01 T02580160  RH  054%=      5-min Rain = 0
KNH1 061345Z 20014G19KT 26/16 A3005 RMK A01 T02590158  RH  054%=      5-min Rain = 0
KNH1 061346Z 21013KT 26/16 A3005 RMK A01 T02590158  RH  054%=      5-min Rain = 0
KNH1 061347Z 20011KT 26/16 A3005 RMK A01 T02590159  RH  054%=      5-min Rain = 0
KNH1 061348Z 20012KT 26/16 A3006 RMK A01 T02600159  RH  054%=      5-min Rain = 0
KNH1 061349Z 20013KT 26/16 A3005 RMK A01 T02600158  RH  054%=      5-min Rain = 0
KNH1 061350Z 20013KT 26/16 A3006 RMK A01 T02600158  RH  053%=      5-min Rain = 0
KNH1 061351Z 20015KT 26/16 A3006 RMK A01 T02600158  RH  053%=      5-min Rain = 0
KNH1 061352Z 20014KT 26/16 A3006 RMK A01 T02600158  RH  053%=      5-min Rain = 0
KNH1 061353Z 20012KT 26/16 A3006 RMK A01 T02590157  RH  053%=      5-min Rain = 0
KNH1 061354Z 20013KT 26/16 A3006 RMK A01 T02590159  RH  054%=      5-min Rain = 0
KNH1 061355Z 21012KT 26/16 A3006 RMK A01 T02600157  RH  053%=      5-min Rain = 0
KNH1 061356Z 20010KT 26/16 A3006 RMK A01 T02600158  RH  053%=      5-min Rain = 0
KNH1 061357Z 20013KT 26/16 A3006 RMK A01 T02600159  RH  054%=      5-min Rain = 0
KNH1 061358Z 20013KT 26/16 A3006 RMK A01 T02610158  RH  053%=      5-min Rain = 0
KNH1 061359Z 20014KT 26/16 A3006 RMK A01 T02600158  RH  053%=      5-min Rain = 0
KNH1 061400Z 19014KT 26/16 A3006 RMK A01 T02600157  RH  053%=      5-min Rain = 0
KNH1 061401Z 20012KT 26/16 A3006 RMK A01 T02600157  RH  053%=      5-min Rain = 0
KNH1 061402Z 19013KT 26/16 A3006 RMK A01 T02600158  RH  053%=      5-min Rain = 0
KNH1 061403Z 19012KT 26/16 A3006 RMK A01 T02610159  RH  053%=      5-min Rain = 0
KNH1 061404Z 19013KT 26/16 A3006 RMK A01 T02620159  RH  053%=      5-min Rain = 0
KNH1 061405Z 20013KT 26/16 A3006 RMK A01 T02620158  RH  053%=      5-min Rain = 0
KNH1 061406Z 20012KT 26/16 A3006 RMK A01 T02620158  RH  053%=      5-min Rain = 0
KNH1 061407Z 19012KT 26/16 A3006 RMK A01 T02610159  RH  053%=      5-min Rain = 0
KNH1 061408Z 19012KT 26/16 A3006 RMK A01 T02620159  RH  053%=      5-min Rain = 0
KNH1 061409Z 19012KT 26/16 A3005 RMK A01 T02630160  RH  053%=      5-min Rain = 0
KNH1 061410Z 19012KT 26/16 A3005 RMK A01 T02640160  RH  053%=      5-min Rain = 0
KNH1 061411Z 20013KT 26/16 A3005 RMK A01 T02640160  RH  053%=      5-min Rain = 0
KNH1 061412Z 20011KT 26/16 A3006 RMK A01 T02640161  RH  053%=      5-min Rain = 0
KNH1 061413Z 20014KT 26/16 A3005 RMK A01 T02640160  RH  053%=      5-min Rain = 0
KNH1 061414Z 21012KT 27/16 A3005 RMK A01 T02650160  RH  052%=      5-min Rain = 0
KNH1 061415Z 20011KT 27/16 A3005 RMK A01 T02650161  RH  053%=      5-min Rain = 0
KNH1 061416Z 20014KT 27/16 A3005 RMK A01 T02660160  RH  052%=      5-min Rain = 0
KNH1 061417Z 19012KT 27/16 A3006 RMK A01 T02660162  RH  053%=      5-min Rain = 0
KNH1 061418Z 20013KT 27/16 A3005 RMK A01 T02680161  RH  052%=      5-min Rain = 0
KNH1 061419Z 19014KT 27/16 A3005 RMK A01 T02680161  RH  052%=      5-min Rain = 0
KNH1 061420Z 19015KT 27/16 A3005 RMK A01 T02670160  RH  052%=      5-min Rain = 0
KNH1 061421Z 21013KT 27/16 A3005 RMK A01 T02650160  RH  052%=      5-min Rain = 0
KNH1 061422Z 21016KT 26/16 A3005 RMK A01 T02640159  RH  052%=      5-min Rain = 0
KNH1 061423Z 20015KT 26/16 A3005 RMK A01 T02630159  RH  053%=      5-min Rain = 0
KNH1 061424Z 21014KT 26/16 A3005 RMK A01 T02630159  RH  053%=      5-min Rain = 0
KNH1 061425Z 21015KT 26/16 A3005 RMK A01 T02620158  RH  052%=      5-min Rain = 0
KNH1 061426Z 21013KT 26/16 A3006 RMK A01 T02620158  RH  053%=      5-min Rain = 0
KNH1 061427Z 20014KT 26/16 A3006 RMK A01 T02640160  RH  053%=      5-min Rain = 0
KNH1 061428Z 20014KT 27/16 A3006 RMK A01 T02660160  RH  052%=      5-min Rain = 0
KNH1 061429Z 21013KT 27/16 A3006 RMK A01 T02660159  RH  052%=      5-min Rain = 0
KNH1 061430Z 21013KT 27/16 A3006 RMK A01 T02670160  RH  052%=      5-min Rain = 0
KNH1 061431Z 20012KT 27/16 A3006 RMK A01 T02680161  RH  052%=      5-min Rain = 0
KNH1 061432Z 20010KT 27/17 A3006 RMK A01 T02700165  RH  052%=      5-min Rain = 0
KNH1 061433Z 21011KT 27/16 A3006 RMK A01 T02720164  RH  051%=      5-min Rain = 0
KNH1 061434Z 20012KT 27/16 A3006 RMK A01 T02730162  RH  051%=      5-min Rain = 0
KNH1 061435Z 19017KT 27/16 A3006 RMK A01 T02730160  RH  050%=      5-min Rain = 0
KNH1 061436Z 19016KT 27/16 A3006 RMK A01 T02720160  RH  050%=      5-min Rain = 0
KNH1 061437Z 20016G21KT 27/16 A3006 RMK A01 T02710159  RH  050%=      5-min Rain = 0
KNH1 061438Z 20017KT 27/16 A3006 RMK A01 T02720158  RH  050%=      5-min Rain = 0
KNH1 061439Z 20014KT 27/16 A3006 RMK A01 T02720161  RH  051%=      5-min Rain = 0
KNH1 061440Z 20016KT 27/16 A3006 RMK A01 T02740159  RH  049%=      5-min Rain = 0
KNH1 061441Z 20016KT 27/16 A3006 RMK A01 T02740160  RH  050%=      5-min Rain = 0
KNH1 061442Z 20013KT 27/16 A3006 RMK A01 T02740161  RH  050%=      5-min Rain = 0
KNH1 061443Z 20013KT 28/16 A3006 RMK A01 T02750160  RH  049%=      5-min Rain = 0
KNH1 061444Z 20012KT 28/16 A3006 RMK A01 T02760161  RH  050%=      5-min Rain = 0
KNH1 061445Z 20016KT 28/16 A3006 RMK A01 T02780161  RH  049%=      5-min Rain = 0
KNH1 061446Z 20015KT 28/16 A3006 RMK A01 T02790161  RH  049%=      5-min Rain = 0
KNH1 061447Z 21015KT 28/16 A3006 RMK A01 T02790161  RH  048%=      5-min Rain = 0
KNH1 061448Z 22017KT 28/16 A3006 RMK A01 T02790159  RH  048%=      5-min Rain = 0
KNH1 061449Z 22016KT 28/16 A3006 RMK A01 T02790159  RH  048%=      5-min Rain = 0
KNH1 061450Z 21016KT 28/16 A3006 RMK A01 T02790159  RH  048%=      5-min Rain = 0
KNH1 061451Z 20016KT 28/16 A3006 RMK A01 T02790160  RH  048%=      5-min Rain = 0
KNH1 061452Z 21016KT 28/16 A3006 RMK A01 T02760158  RH  048%=      5-min Rain = 0
KNH1 061453Z 21016KT 28/16 A3006 RMK A01 T02750159  RH  049%=      5-min Rain = 0
KNH1 061454Z 21013KT 27/16 A3006 RMK A01 T02740160  RH  050%=      5-min Rain = 0
KNH1 061455Z 21012KT 27/16 A3006 RMK A01 T02740160  RH  050%=      5-min Rain = 0
KNH1 061456Z 22013KT 28/16 A3006 RMK A01 T02750159  RH  049%=      5-min Rain = 0
KNH1 061457Z 21014KT 28/16 A3006 RMK A01 T02750160  RH  049%=      5-min Rain = 0
KNH1 061458Z 20015KT 28/16 A3005 RMK A01 T02750158  RH  049%=      5-min Rain = 0
KNH1 061459Z 20015KT 28/16 A3006 RMK A01 T02750158  RH  049%=      5-min Rain = 0
KNH1 061500Z 20014KT 27/16 A3006 RMK A01 T02740156  RH  048%=      5-min Rain = 0
KNH1 061501Z 20017KT 27/16 A3005 RMK A01 T02740156  RH  048%=      5-min Rain = 0
KNH1 061502Z 19016KT 27/16 A3005 RMK A01 T02730155  RH  048%=      5-min Rain = 0
KNH1 061503Z 20014KT 27/16 A3005 RMK A01 T02730157  RH  049%=      5-min Rain = 0
KNH1 061504Z 21016KT 27/16 A3005 RMK A01 T02720156  RH  049%=      5-min Rain = 0
KNH1 061505Z 20013KT 27/16 A3006 RMK A01 T02730156  RH  049%=      5-min Rain = 0
KNH1 061506Z 21013KT 27/16 A3006 RMK A01 T02730158  RH  049%=      5-min Rain = 0
KNH1 061507Z 21010KT 27/16 A3006 RMK A01 T02740159  RH  049%=      5-min Rain = 0
KNH1 061508Z 21013KT 28/16 A3006 RMK A01 T02750159  RH  049%=      5-min Rain = 0
KNH1 061509Z 20014KT 28/16 A3005 RMK A01 T02750157  RH  049%=      5-min Rain = 0
KNH1 061510Z 21014KT 27/16 A3005 RMK A01 T02740157  RH  049%=      5-min Rain = 0
KNH1 061511Z 21015KT 27/16 A3005 RMK A01 T02740157  RH  049%=      5-min Rain = 0
KNH1 061512Z 20014KT 27/16 A3005 RMK A01 T02730156  RH  049%=      5-min Rain = 0
KNH1 061513Z 20013KT 27/16 A3005 RMK A01 T02720156  RH  049%=      5-min Rain = 0
KNH1 061514Z 20013KT 27/16 A3005 RMK A01 T02730157  RH  049%=      5-min Rain = 0
KNH1 061515Z 20010KT 27/16 A3005 RMK A01 T02730158  RH  050%=      5-min Rain = 0
KNH1 061516Z 21012KT 27/16 A3005 RMK A01 T02730159  RH  049%=      5-min Rain = 0
KNH1 061517Z 21014KT 27/16 A3005 RMK A01 T02730158  RH  049%=      5-min Rain = 0
KNH1 061518Z 21014KT 27/16 A3005 RMK A01 T02730157  RH  049%=      5-min Rain = 0
KNH1 061519Z 20014KT 27/16 A3005 RMK A01 T02740157  RH  049%=      5-min Rain = 0
KNH1 061520Z 20014KT 27/16 A3005 RMK A01 T02730158  RH  049%=      5-min Rain = 0
KNH1 061521Z 20014KT 27/16 A3005 RMK A01 T02730157  RH  049%=      5-min Rain = 0
KNH1 061522Z 20010KT 27/16 A3005 RMK A01 T02730159  RH  050%=      5-min Rain = 0
KNH1 061523Z 21011KT 27/16 A3006 RMK A01 T02730158  RH  049%=      5-min Rain = 0
KNH1 061524Z 21013KT 27/16 A3005 RMK A01 T02740157  RH  049%=      5-min Rain = 0
KNH1 061525Z 21012KT 27/16 A3006 RMK A01 T02740157  RH  049%=      5-min Rain = 0
KNH1 061526Z 20011KT 28/16 A3006 RMK A01 T02750158  RH  049%=      5-min Rain = 0
KNH1 061527Z 20010KT 28/16 A3006 RMK A01 T02750159  RH  049%=      5-min Rain = 0
KNH1 061528Z 20013KT 28/16 A3006 RMK A01 T02750160  RH  049%=      5-min Rain = 0
KNH1 061529Z 20015KT 28/16 A3006 RMK A01 T02750158  RH  049%=      5-min Rain = 0
KNH1 061530Z 20012KT 27/16 A3006 RMK A01 T02740158  RH  049%=      5-min Rain = 0
KNH1 061531Z 20012KT 27/16 A3006 RMK A01 T02730159  RH  050%=      5-min Rain = 0
KNH1 061532Z 20010KT 27/16 A3006 RMK A01 T02730160  RH  050%=      5-min Rain = 0
KNH1 061533Z 20010KT 27/16 A3006 RMK A01 T02740160  RH  050%=      5-min Rain = 0
KNH1 061534Z 20011KT 27/16 A3006 RMK A01 T02740161  RH  050%=      5-min Rain = 0
KNH1 061535Z 20012KT 28/16 A3006 RMK A01 T02750160  RH  050%=      5-min Rain = 0
KNH1 061536Z 20015KT 28/16 A3006 RMK A01 T02750156  RH  048%=      5-min Rain = 0
KNH1 061537Z 20016KT 28/15 A3006 RMK A01 T02750154  RH  047%=      5-min Rain = 0
KNH1 061538Z 21013G18KT 28/15 A3006 RMK A01 T02760154  RH  048%=      5-min Rain = 0
KNH1 061539Z 21017KT 28/15 A3006 RMK A01 T02760153  RH  047%=      5-min Rain = 0
KNH1 061540Z 21014G19KT 28/15 A3006 RMK A01 T02750151  RH  047%=      5-min Rain = 0
KNH1 061541Z 20016KT 28/15 A3006 RMK A01 T02750150  RH  046%=      5-min Rain = 0
KNH1 061542Z 20013KT 28/15 A3006 RMK A01 T02750149  RH  046%=      5-min Rain = 0
KNH1 061543Z 21014KT 28/15 A3006 RMK A01 T02750151  RH  047%=      5-min Rain = 0
KNH1 061544Z 21015KT 28/15 A3006 RMK A01 T02750151  RH  047%=      5-min Rain = 0
KNH1 061545Z 21015KT 28/15 A3006 RMK A01 T02750153  RH  047%=      5-min Rain = 0
KNH1 061546Z 21017KT 28/15 A3006 RMK A01 T02750152  RH  047%=      5-min Rain = 0
KNH1 061547Z 21016KT 27/15 A3006 RMK A01 T02740152  RH  047%=      5-min Rain = 0
KNH1 061548Z 21014KT 27/15 A3006 RMK A01 T02740153  RH  048%=      5-min Rain = 0
KNH1 061549Z 21011KT 27/16 A3006 RMK A01 T02740155  RH  048%=      5-min Rain = 0
KNH1 061550Z 21012KT 28/16 A3006 RMK A01 T02750155  RH  048%=      5-min Rain = 0
KNH1 061551Z 21013KT 28/16 A3006 RMK A01 T02760155  RH  048%=      5-min Rain = 0
KNH1 061552Z 21012KT 28/16 A3006 RMK A01 T02760156  RH  048%=      5-min Rain = 0
KNH1 061553Z 21013KT 28/16 A3006 RMK A01 T02760155  RH  048%=      5-min Rain = 0
KNH1 061554Z 21011KT 28/16 A3006 RMK A01 T02760155  RH  048%=      5-min Rain = 0
KNH1 061555Z 21014KT 28/16 A3006 RMK A01 T02770156  RH  048%=      5-min Rain = 0
KNH1 061556Z 20011KT 28/16 A3006 RMK A01 T02770156  RH  048%=      5-min Rain = 0
KNH1 061557Z 20012KT 28/16 A3006 RMK A01 T02770158  RH  048%=      5-min Rain = 0
KNH1 061558Z 20012KT 28/16 A3006 RMK A01 T02780157  RH  048%=      5-min Rain = 0
KNH1 061559Z 21011KT 28/16 A3006 RMK A01 T02780158  RH  048%=      5-min Rain = 0
KNH1 061600Z 21014KT 28/16 A3006 RMK A01 T02790157  RH  047%=      5-min Rain = 0
KNH1 061601Z 21014KT 28/16 A3006 RMK A01 T02790156  RH  047%=      5-min Rain = 0
KNH1 061602Z 21012KT 28/16 A3006 RMK A01 T02800156  RH  047%=      5-min Rain = 0
KNH1 061603Z 21013KT 28/15 A3006 RMK A01 T02790154  RH  046%=      5-min Rain = 0
KNH1 061604Z 21014KT 28/15 A3006 RMK A01 T02790154  RH  046%=      5-min Rain = 0
KNH1 061605Z 21011KT 28/16 A3006 RMK A01 T02790155  RH  047%=      5-min Rain = 0
KNH1 061606Z 20012KT 28/16 A3006 RMK A01 T02800156  RH  047%=      5-min Rain = 0
KNH1 061607Z 21011KT 28/16 A3006 RMK A01 T02800156  RH  047%=      5-min Rain = 0
KNH1 061608Z 21011KT 28/16 A3006 RMK A01 T02810158  RH  047%=      5-min Rain = 0
KNH1 061609Z 21010KT 28/16 A3006 RMK A01 T02810158  RH  047%=      5-min Rain = 0
KNH1 061610Z 21012KT 28/16 A3006 RMK A01 T02820158  RH  047%=      5-min Rain = 0
KNH1 061611Z 21011KT 28/16 A3006 RMK A01 T02820156  RH  046%=      5-min Rain = 0
KNH1 061612Z 19010KT 28/16 A3006 RMK A01 T02820159  RH  047%=      5-min Rain = 0
KNH1 061613Z 20010KT 28/16 A3006 RMK A01 T02820159  RH  047%=      5-min Rain = 0
KNH1 061614Z 20010KT 28/16 A3006 RMK A01 T02830160  RH  047%=      5-min Rain = 0
KNH1 061615Z 20014KT 28/16 A3006 RMK A01 T02830155  RH  046%=      5-min Rain = 0
KNH1 061616Z 20013KT 28/15 A3006 RMK A01 T02830153  RH  045%=      5-min Rain = 0
KNH1 061617Z 20013KT 28/15 A3006 RMK A01 T02820152  RH  045%=      5-min Rain = 0
KNH1 061618Z 21014KT 28/15 A3006 RMK A01 T02830152  RH  045%=      5-min Rain = 0
KNH1 061619Z 21013KT 28/15 A3007 RMK A01 T02830151  RH  045%=      5-min Rain = 0
KNH1 061620Z 20014KT 28/15 A3006 RMK A01 T02840149  RH  044%=      5-min Rain = 0
KNH1 061621Z 20013KT 28/15 A3007 RMK A01 T02840149  RH  044%=      5-min Rain = 0
KNH1 061622Z 20013KT 28/15 A3007 RMK A01 T02840149  RH  044%=      5-min Rain = 0
KNH1 061623Z 20013KT 28/15 A3006 RMK A01 T02840150  RH  044%=      5-min Rain = 0
KNH1 061624Z 21013KT 28/15 A3007 RMK A01 T02840152  RH  045%=      5-min Rain = 0
KNH1 061625Z 22014KT 28/15 A3006 RMK A01 T02840150  RH  044%=      5-min Rain = 0
KNH1 061626Z 21015KT 28/15 A3007 RMK A01 T02840150  RH  044%=      5-min Rain = 0
KNH1 061627Z 21013KT 28/15 A3007 RMK A01 T02840151  RH  044%=      5-min Rain = 0
KNH1 061628Z 21014KT 28/15 A3006 RMK A01 T02840151  RH  044%=      5-min Rain = 0
KNH1 061629Z 21014KT 28/15 A3006 RMK A01 T02840152  RH  045%=      5-min Rain = 0
KNH1 061630Z 20013KT 28/15 A3006 RMK A01 T02840152  RH  044%=      5-min Rain = 0
KNH1 061631Z 20013KT 28/15 A3006 RMK A01 T02840151  RH  044%=      5-min Rain = 0
KNH1 061632Z 20012KT 28/15 A3006 RMK A01 T02840151  RH  044%=      5-min Rain = 0
KNH1 061633Z 20010KT 28/15 A3006 RMK A01 T02840153  RH  045%=      5-min Rain = 0
KNH1 061634Z 20009KT 29/16 A3006 RMK A01 T02850155  RH  045%=      5-min Rain = 0
KNH1 061635Z 21010KT 29/15 A3006 RMK A01 T02860153  RH  044%=      5-min Rain = 0
KNH1 061636Z 20012KT 29/15 A3006 RMK A01 T02870151  RH  044%=      5-min Rain = 0
KNH1 061637Z 21011KT 29/15 A3006 RMK A01 T02860152  RH  044%=      5-min Rain = 0
KNH1 061638Z 22010KT 29/15 A3006 RMK A01 T02860153  RH  044%=      5-min Rain = 0
KNH1 061639Z 21010KT 29/15 A3006 RMK A01 T02860153  RH  044%=      5-min Rain = 0
KNH1 061640Z 21010KT 29/16 A3006 RMK A01 T02870155  RH  045%=      5-min Rain = 0
KNH1 061641Z 20012KT 29/16 A3006 RMK A01 T02890155  RH  044%=      5-min Rain = 0
KNH1 061642Z 20013KT 29/15 A3006 RMK A01 T02910153  RH  043%=      5-min Rain = 0
KNH1 061643Z 20011KT 29/15 A3006 RMK A01 T02910151  RH  042%=      5-min Rain = 0
KNH1 061644Z 19012KT 29/15 A3006 RMK A01 T02930153  RH  043%=      5-min Rain = 0
KNH1 061645Z 20011KT 30/16 A3006 RMK A01 T02960155  RH  043%=      5-min Rain = 0
KNH1 061646Z 19011KT 30/16 A3006 RMK A01 T02970155  RH  042%=      5-min Rain = 0
KNH1 061647Z 19011KT 30/15 A3006 RMK A01 T02980154  RH  041%=      5-min Rain = 0
KNH1 061648Z 19010KT 30/16 A3006 RMK A01 T02990155  RH  042%=      5-min Rain = 0
KNH1 061649Z 19009KT 30/16 A3006 RMK A01 T03010158  RH  042%=      5-min Rain = 0
KNH1 061650Z 20012KT 30/16 A3006 RMK A01 T03020157  RH  041%=      5-min Rain = 0
KNH1 061651Z 21013KT 30/15 A3006 RMK A01 T03020152  RH  040%=      5-min Rain = 0
KNH1 061652Z 19011KT 30/16 A3006 RMK A01 T03030156  RH  041%=      5-min Rain = 0
KNH1 061653Z 18011KT 30/16 A3006 RMK A01 T03040155  RH  041%=      5-min Rain = 0
KNH1 061654Z 18013KT 31/15 A3006 RMK A01 T03050153  RH  040%=      5-min Rain = 0
KNH1 061655Z 18013KT 31/15 A3006 RMK A01 T03050152  RH  039%=      5-min Rain = 0
KNH1 061656Z 18014KT 31/15 A3006 RMK A01 T03060154  RH  040%=      5-min Rain = 0
KNH1 061657Z 19013KT 31/15 A3006 RMK A01 T03070153  RH  039%=      5-min Rain = 0
KNH1 061658Z 20011KT 31/15 A3006 RMK A01 T03090154  RH  039%=      5-min Rain = 0
KNH1 061659Z 21011KT 31/15 A3006 RMK A01 T03100154  RH  039%=      5-min Rain = 0
KNH1 061700Z 21010KT 31/15 A3006 RMK A01 T03090152  RH  039%=      5-min Rain = 0
KNH1 061701Z 19011KT 31/16 A3006 RMK A01 T03080155  RH  040%=      5-min Rain = 0
KNH1 061702Z 19012KT 31/15 A3006 RMK A01 T03120154  RH  038%=      5-min Rain = 0
KNH1 061703Z 19011KT 31/15 A3006 RMK A01 T03140152  RH  038%=      5-min Rain = 0
KNH1 061704Z 20012KT 31/15 A3006 RMK A01 T03130153  RH  038%=      5-min Rain = 0
KNH1 061705Z 20013KT 32/15 A3006 RMK A01 T03170154  RH  037%=      5-min Rain = 0
KNH1 061706Z 20013KT 32/15 A3006 RMK A01 T03200150  RH  036%=      5-min Rain = 0
KNH1 061707Z 20014KT 32/15 A3006 RMK A01 T03190151  RH  036%=      5-min Rain = 0
KNH1 061708Z 19013KT 32/15 A3006 RMK A01 T03190149  RH  036%=      5-min Rain = 0
KNH1 061709Z 20013KT 32/15 A3006 RMK A01 T03180153  RH  037%=      5-min Rain = 0
KNH1 061710Z 18013KT 32/15 A3006 RMK A01 T03190151  RH  036%=      5-min Rain = 0
KNH1 061711Z 18012G17KT 32/15 A3006 RMK A01 T03180148  RH  036%=      5-min Rain = 0
KNH1 061712Z 19011KT 32/15 A3006 RMK A01 T03150145  RH  036%=      5-min Rain = 0
KNH1 061713Z 19013KT 32/15 A3006 RMK A01 T03150149  RH  037%=      5-min Rain = 0
KNH1 061714Z 19010KT 32/15 A3006 RMK A01 T03180151  RH  037%=      5-min Rain = 0
KNH1 061715Z 20010KT 32/15 A3005 RMK A01 T03200150  RH  036%=      5-min Rain = 0
KNH1 061716Z 20014KT 32/15 A3005 RMK A01 T03230146  RH  034%=      5-min Rain = 0
KNH1 061717Z 20011KT 32/14 A3005 RMK A01 T03240144  RH  034%=      5-min Rain = 0
KNH1 061718Z 20009KT 32/15 A3005 RMK A01 T03240150  RH  035%=      5-min Rain = 0
KNH1 061719Z 19013KT 33/15 A3005 RMK A01 T03270147  RH  034%=      5-min Rain = 0
KNH1 061720Z 19014KT 33/14 A3005 RMK A01 T03280143  RH  033%=      5-min Rain = 0
KNH1 061721Z 19015KT 33/14 A3005 RMK A01 T03280141  RH  032%=      5-min Rain = 0
KNH1 061722Z 19014KT 33/14 A3005 RMK A01 T03290141  RH  032%=      5-min Rain = 0
KNH1 061723Z 20012KT 33/14 A3005 RMK A01 T03270142  RH  033%=      5-min Rain = 0
KNH1 061724Z 18012KT 33/14 A3005 RMK A01 T03270142  RH  033%=      5-min Rain = 0
KNH1 061725Z 18011KT 33/14 A3005 RMK A01 T03280140  RH  032%=      5-min Rain = 0
KNH1 061726Z 18012G17KT 33/14 A3005 RMK A01 T03280141  RH  032%=      5-min Rain = 0
KNH1 061727Z 18014KT 33/14 A3005 RMK A01 T03280139  RH  032%=      5-min Rain = 0
KNH1 061728Z 19012KT 33/14 A3005 RMK A01 T03290138  RH  031%=      5-min Rain = 0
KNH1 061729Z 19014KT 33/14 A3005 RMK A01 T03290138  RH  031%=      5-min Rain = 0
KNH1 061730Z 18012KT 33/14 A3005 RMK A01 T03290138  RH  031%=      5-min Rain = 0
KNH1 061731Z 19010G17KT 33/14 A3005 RMK A01 T03300142  RH  032%=      5-min Rain = 0
KNH1 061732Z 20012G17KT 33/14 A3005 RMK A01 T03330143  RH  032%=      5-min Rain = 0
KNH1 061733Z 20015KT 34/14 A3005 RMK A01 T03360138  RH  030%=      5-min Rain = 0
KNH1 061734Z 21012KT 34/14 A3005 RMK A01 T03350138  RH  031%=      5-min Rain = 0
KNH1 061735Z 21011KT 34/15 A3005 RMK A01 T03350145  RH  032%=      5-min Rain = 0
KNH1 061736Z 19012KT 34/14 A3005 RMK A01 T03380143  RH  031%=      5-min Rain = 0
KNH1 061737Z 18014KT 34/14 A3005 RMK A01 T03370139  RH  030%=      5-min Rain = 0
KNH1 061738Z 18010KT 33/14 A3005 RMK A01 T03330136  RH  030%=      5-min Rain = 0
KNH1 061739Z 19013KT 33/14 A3005 RMK A01 T03340138  RH  031%=      5-min Rain = 0
KNH1 061740Z 18014KT 34/14 A3005 RMK A01 T03370139  RH  030%=      5-min Rain = 0
KNH1 061741Z 18012KT 34/14 A3005 RMK A01 T03370135  RH  030%=      5-min Rain = 0
KNH1 061742Z 18013KT 33/14 A3005 RMK A01 T03340136  RH  030%=      5-min Rain = 0
KNH1 061743Z 19011KT 34/14 A3005 RMK A01 T03350141  RH  031%=      5-min Rain = 0
KNH1 061744Z 18013G19KT 34/14 A3005 RMK A01 T03350143  RH  031%=      5-min Rain = 0
KNH1 061745Z 18014KT 34/14 A3005 RMK A01 T03360140  RH  031%=      5-min Rain = 0
KNH1 061746Z 19013KT 34/14 A3005 RMK A01 T03360136  RH  030%=      5-min Rain = 0
KNH1 061747Z 20015KT 34/14 A3005 RMK A01 T03350139  RH  031%=      5-min Rain = 0
KNH1 061748Z 20013KT 34/14 A3005 RMK A01 T03350138  RH  030%=      5-min Rain = 0
KNH1 061749Z 20014KT 34/13 A3005 RMK A01 T03380134  RH  029%=      5-min Rain = 0
KNH1 061750Z 21014KT 34/13 A3005 RMK A01 T03390134  RH  029%=      5-min Rain = 0
KNH1 061751Z 21012KT 34/14 A3005 RMK A01 T03360135  RH  030%=      5-min Rain = 0
KNH1 061752Z 19014G19KT 34/14 A3005 RMK A01 T03360139  RH  031%=      5-min Rain = 0
KNH1 061753Z 19013KT 34/14 A3005 RMK A01 T03380140  RH  030%=      5-min Rain = 0
KNH1 061754Z 19012KT 34/13 A3005 RMK A01 T03400134  RH  029%=      5-min Rain = 0
KNH1 061755Z 18010KT 34/14 A3005 RMK A01 T03400143  RH  031%=      5-min Rain = 0
KNH1 061756Z 18010KT 34/15 A3005 RMK A01 T03410145  RH  031%=      5-min Rain = 0
KNH1 061757Z 20011KT 34/14 A3005 RMK A01 T03410137  RH  029%=      5-min Rain = 0
KNH1 061758Z 18013KT 34/14 A3005 RMK A01 T03410143  RH  030%=      5-min Rain = 0
KNH1 061759Z 18011KT 34/15 A3005 RMK A01 T03400146  RH  031%=      5-min Rain = 0
KNH1 061800Z 19010G17KT 34/15 A3004 RMK A01 T03400148  RH  032%=      5-min Rain = 0
KNH1 061801Z 18016KT 34/15 A3004 RMK A01 T03430148  RH  031%=      5-min Rain = 0
KNH1 061802Z 18014KT 34/15 A3004 RMK A01 T03420146  RH  031%=      5-min Rain = 0
KNH1 061803Z 18013KT 34/14 A3004 RMK A01 T03410143  RH  030%=      5-min Rain = 0
KNH1 061804Z 19011KT 34/14 A3004 RMK A01 T03410141  RH  030%=      5-min Rain = 0
KNH1 061805Z 19011KT 34/14 A3004 RMK A01 T03400143  RH  031%=      5-min Rain = 0
KNH1 061806Z 18011KT 34/15 A3004 RMK A01 T03400145  RH  031%=      5-min Rain = 0
KNH1 061807Z 18012KT 34/15 A3004 RMK A01 T03400145  RH  031%=      5-min Rain = 0
KNH1 061808Z 18012KT 34/14 A3004 RMK A01 T03440144  RH  030%=      5-min Rain = 0
KNH1 061809Z 19011G16KT 35/14 A3004 RMK A01 T03450143  RH  030%=      5-min Rain = 0
KNH1 061810Z 19014KT 35/14 A3004 RMK A01 T03460139  RH  029%=      5-min Rain = 0
KNH1 061811Z 19011KT 34/14 A3004 RMK A01 T03430139  RH  029%=      5-min Rain = 0
KNH1 061812Z 18011KT 34/14 A3004 RMK A01 T03420143  RH  030%=      5-min Rain = 0
KNH1 061813Z 17010G15KT 35/15 A3004 RMK A01 T03450145  RH  030%=      5-min Rain = 0
KNH1 061814Z 19013KT 35/14 A3004 RMK A01 T03470141  RH  029%=      5-min Rain = 0
KNH1 061815Z 19015KT 35/14 A3004 RMK A01 T03470139  RH  029%=      5-min Rain = 0
KNH1 061816Z 19011KT 35/14 A3004 RMK A01 T03450141  RH  029%=      5-min Rain = 0
KNH1 061817Z 20011KT 35/14 A3004 RMK A01 T03480144  RH  030%=      5-min Rain = 0
KNH1 061818Z 18015KT 35/15 A3004 RMK A01 T03480145  RH  030%=      5-min Rain = 0
KNH1 061819Z 19013KT 35/14 A3004 RMK A01 T03480144  RH  029%=      5-min Rain = 0
KNH1 061820Z 19013KT 35/15 A3004 RMK A01 T03500145  RH  029%=      5-min Rain = 0
KNH1 061821Z 20013KT 35/14 A3004 RMK A01 T03520142  RH  028%=      5-min Rain = 0
KNH1 061822Z 19012KT 35/14 A3004 RMK A01 T03520144  RH  029%=      5-min Rain = 0
KNH1 061823Z 19011KT 35/14 A3004 RMK A01 T03520142  RH  028%=      5-min Rain = 0
KNH1 061824Z 20011KT 35/14 A3004 RMK A01 T03530140  RH  028%=      5-min Rain = 0
KNH1 061825Z 21011KT 35/13 A3004 RMK A01 T03520134  RH  027%=      5-min Rain = 0
KNH1 061826Z 21011KT 35/13 A3004 RMK A01 T03540132  RH  026%=      5-min Rain = 0
KNH1 061827Z 20011KT 36/14 A3003 RMK A01 T03550135  RH  027%=      5-min Rain = 0
KNH1 061828Z 18013KT 36/14 A3003 RMK A01 T03550138  RH  027%=      5-min Rain = 0
KNH1 061829Z 19013KT 35/14 A3003 RMK A01 T03540138  RH  027%=      5-min Rain = 0
KNH1 061830Z 19015KT 35/14 A3003 RMK A01 T03520137  RH  027%=      5-min Rain = 0
KNH1 061831Z 19016KT 35/13 A3003 RMK A01 T03510132  RH  027%=      5-min Rain = 0
KNH1 061832Z 18015KT 35/13 A3003 RMK A01 T03500132  RH  027%=      5-min Rain = 0
KNH1 061833Z 18012G17KT 35/12 A3003 RMK A01 T03520121  RH  025%=      5-min Rain = 0
KNH1 061834Z 19012KT 35/13 A3003 RMK A01 T03530128  RH  026%=      5-min Rain = 0
KNH1 061835Z 19014KT 35/13 A3003 RMK A01 T03530131  RH  026%=      5-min Rain = 0
KNH1 061836Z 19017KT 36/13 A3003 RMK A01 T03550129  RH  026%=      5-min Rain = 0
KNH1 061837Z 19012KT 36/13 A3003 RMK A01 T03550127  RH  025%=      5-min Rain = 0
KNH1 061838Z 18011KT 35/13 A3003 RMK A01 T03520130  RH  026%=      5-min Rain = 0
KNH1 061839Z 18011KT 35/13 A3003 RMK A01 T03520129  RH  026%=      5-min Rain = 0
KNH1 061840Z 19012KT 35/13 A3003 RMK A01 T03530131  RH  026%=      5-min Rain = 0
KNH1 061841Z 17015KT 35/13 A3003 RMK A01 T03540129  RH  026%=      5-min Rain = 0
KNH1 061842Z 19014KT 35/13 A3003 RMK A01 T03540125  RH  025%=      5-min Rain = 0
KNH1 061843Z 20011KT 35/12 A3003 RMK A01 T03540122  RH  025%=      5-min Rain = 0
KNH1 061844Z 20017KT 36/12 A3003 RMK A01 T03570120  RH  024%=      5-min Rain = 0
KNH1 061845Z 19014KT 36/12 A3003 RMK A01 T03560118  RH  024%=      5-min Rain = 0
KNH1 061846Z 18015KT 36/12 A3003 RMK A01 T03560120  RH  024%=      5-min Rain = 0
KNH1 061847Z 18015KT 36/12 A3003 RMK A01 T03560117  RH  024%=      5-min Rain = 0
KNH1 061848Z 17013KT 35/11 A3003 RMK A01 T03530113  RH  023%=      5-min Rain = 0
KNH1 061849Z 18016KT 35/11 A3003 RMK A01 T03530107  RH  023%=      5-min Rain = 0
KNH1 061850Z 17014KT 36/11 A3003 RMK A01 T03570105  RH  022%=      5-min Rain = 0
KNH1 061851Z 18014KT 36/11 A3003 RMK A01 T03590105  RH  022%=      5-min Rain = 0
KNH1 061852Z 19016KT 36/12 A3003 RMK A01 T03600116  RH  023%=      5-min Rain = 0
KNH1 061853Z 19016KT 36/12 A3003 RMK A01 T03590115  RH  023%=      5-min Rain = 0
KNH1 061854Z 19018KT 36/11 A3003 RMK A01 T03580110  RH  022%=      5-min Rain = 0
KNH1 061855Z 19016KT 36/11 A3003 RMK A01 T03570107  RH  022%=      5-min Rain = 0
KNH1 061856Z 19014KT 36/11 A3003 RMK A01 T03570106  RH  022%=      5-min Rain = 0
KNH1 061857Z 19014KT 36/11 A3003 RMK A01 T03590110  RH  022%=      5-min Rain = 0
KNH1 061858Z 19015KT 36/11 A3003 RMK A01 T03600109  RH  022%=      5-min Rain = 0
KNH1 061859Z 18012KT 36/10 A3002 RMK A01 T03590102  RH  021%=      5-min Rain = 0
KNH1 061900Z 19015KT 36/10 A3002 RMK A01 T03590104  RH  021%=      5-min Rain = 0
KNH1 061901Z 19015KT 36/11 A3002 RMK A01 T03600106  RH  021%=      5-min Rain = 0
KNH1 061902Z 19011KT 36/11 A3002 RMK A01 T03600107  RH  022%=      5-min Rain = 0
KNH1 061903Z 20012G17KT 36/11 A3002 RMK A01 T03600111  RH  022%=      5-min Rain = 0
KNH1 061904Z 20012G19KT 36/11 A3002 RMK A01 T03620113  RH  022%=      5-min Rain = 0
KNH1 061905Z 20018KT 36/11 A3002 RMK A01 T03620113  RH  022%=      5-min Rain = 0
KNH1 061906Z 21014KT 36/11 A3002 RMK A01 T03580112  RH  023%=      5-min Rain = 0
KNH1 061907Z 20012KT 36/11 A3002 RMK A01 T03590112  RH  022%=      5-min Rain = 0
KNH1 061908Z 19013KT 36/12 A3002 RMK A01 T03630115  RH  022%=      5-min Rain = 0
KNH1 061909Z 19017KT 36/10 A3002 RMK A01 T03640103  RH  021%=      5-min Rain = 0
KNH1 061910Z 19016KT 36/10 A3002 RMK A01 T03610104  RH  021%=      5-min Rain = 0
KNH1 061911Z 19014KT 36/10 A3002 RMK A01 T03610100  RH  021%=      5-min Rain = 0
KNH1 061912Z 19013KT 36/10 A3002 RMK A01 T03610103  RH  021%=      5-min Rain = 0
KNH1 061913Z 19016KT 36/11 A3002 RMK A01 T03630111  RH  022%=      5-min Rain = 0
KNH1 061914Z 20016KT 36/11 A3002 RMK A01 T03630109  RH  022%=      5-min Rain = 0
KNH1 061915Z 20016KT 36/11 A3002 RMK A01 T03610105  RH  021%=      5-min Rain = 0
KNH1 061916Z 18015KT 36/10 A3002 RMK A01 T03600099  RH  020%=      5-min Rain = 0
KNH1 061917Z 19014KT 36/10 A3002 RMK A01 T03610100  RH  021%=      5-min Rain = 0
KNH1 061918Z 19015KT 37/11 A3002 RMK A01 T03650105  RH  021%=      5-min Rain = 0
KNH1 061919Z 19015KT 37/11 A3002 RMK A01 T03660112  RH  022%=      5-min Rain = 0
KNH1 061920Z 20015KT 37/11 A3002 RMK A01 T03660111  RH  021%=      5-min Rain = 0
KNH1 061921Z 19015KT 37/11 A3002 RMK A01 T03650106  RH  021%=      5-min Rain = 0
KNH1 061922Z 19014KT 37/09 A3002 RMK A01 T03660090  RH  019%=      5-min Rain = 0
KNH1 061923Z 19014G19KT 37/10 A3002 RMK A01 T03670102  RH  020%=      5-min Rain = 0
KNH1 061924Z 19015KT 37/11 A3002 RMK A01 T03670107  RH  021%=      5-min Rain = 0
KNH1 061925Z 18015G20KT 37/11 A3002 RMK A01 T03650107  RH  021%=      5-min Rain = 0
KNH1 061926Z 18016KT 36/10 A3001 RMK A01 T03630104  RH  021%=      5-min Rain = 0
KNH1 061927Z 20017KT 36/11 A3002 RMK A01 T03620105  RH  021%=      5-min Rain = 0
KNH1 061928Z 21014KT 36/10 A3002 RMK A01 T03620100  RH  020%=      5-min Rain = 0
KNH1 061929Z 20012KT 36/10 A3001 RMK A01 T03640103  RH  021%=      5-min Rain = 0
KNH1 061930Z 19012KT 37/11 A3001 RMK A01 T03650108  RH  021%=      5-min Rain = 0
KNH1 061931Z 20016KT 37/11 A3001 RMK A01 T03680110  RH  021%=      5-min Rain = 0
KNH1 061932Z 20014KT 37/11 A3001 RMK A01 T03690108  RH  021%=      5-min Rain = 0
KNH1 061933Z 21014KT 37/11 A3001 RMK A01 T03690106  RH  020%=      5-min Rain = 0
KNH1 061934Z 19014KT 37/11 A3001 RMK A01 T03680110  RH  021%=      5-min Rain = 0
KNH1 061935Z 18015KT 37/10 A3001 RMK A01 T03680103  RH  020%=      5-min Rain = 0
KNH1 061936Z 19013KT 37/10 A3001 RMK A01 T03670101  RH  020%=      5-min Rain = 0
KNH1 061937Z 18012KT 37/11 A3001 RMK A01 T03650110  RH  021%=      5-min Rain = 0
KNH1 061938Z 18013G18KT 37/11 A3001 RMK A01 T03670112  RH  022%=      5-min Rain = 0
KNH1 061939Z 18015KT 37/11 A3001 RMK A01 T03680113  RH  022%=      5-min Rain = 0
KNH1 061940Z 19015KT 37/11 A3001 RMK A01 T03700113  RH  021%=      5-min Rain = 0
KNH1 061941Z 20016KT 37/11 A3001 RMK A01 T03700113  RH  021%=      5-min Rain = 0
KNH1 061942Z 20017G22KT 37/11 A3001 RMK A01 T03690111  RH  021%=      5-min Rain = 0
KNH1 061943Z 19014KT 37/11 A3001 RMK A01 T03680113  RH  021%=      5-min Rain = 0
KNH1 061944Z 19017KT 37/11 A3001 RMK A01 T03680111  RH  021%=      5-min Rain = 0
KNH1 061945Z 20015KT 37/11 A3001 RMK A01 T03680106  RH  021%=      5-min Rain = 0
KNH1 061946Z 21014G19KT 37/11 A3001 RMK A01 T03680107  RH  021%=      5-min Rain = 0
KNH1 061947Z 21014KT 37/10 A3001 RMK A01 T03710100  RH  019%=      5-min Rain = 0
KNH1 061948Z 19014KT 37/10 A3001 RMK A01 T03700099  RH  019%=      5-min Rain = 0
KNH1 061949Z 19017KT 37/10 A3001 RMK A01 T03690103  RH  020%=      5-min Rain = 0
KNH1 061950Z 19013KT 37/11 A3001 RMK A01 T03690110  RH  021%=      5-min Rain = 0
KNH1 061951Z 20013KT 37/11 A3001 RMK A01 T03690113  RH  021%=      5-min Rain = 0
KNH1 061952Z 20015G21KT 37/12 A3001 RMK A01 T03690117  RH  022%=      5-min Rain = 0
KNH1 061953Z 20015KT 37/11 A3001 RMK A01 T03700108  RH  021%=      5-min Rain = 0
KNH1 061954Z 20015KT 37/11 A3001 RMK A01 T03700109  RH  021%=      5-min Rain = 0
KNH1 061955Z 20015KT 37/11 A3001 RMK A01 T03690110  RH  021%=      5-min Rain = 0
KNH1 061956Z 19019KT 37/11 A3001 RMK A01 T03690114  RH  022%=      5-min Rain = 0
KNH1 061957Z 19016KT 37/12 A3001 RMK A01 T03690116  RH  022%=      5-min Rain = 0
KNH1 061958Z 19012KT 37/12 A3001 RMK A01 T03690117  RH  022%=      5-min Rain = 0
KNH1 061959Z 20013KT 37/12 A3001 RMK A01 T03680116  RH  022%=      5-min Rain = 0
KNH1 062000Z 20012KT 37/12 A3001 RMK A01 T03670118  RH  022%=      5-min Rain = 0
KNH1 062001Z 18015KT 37/11 A3001 RMK A01 T03710114  RH  021%=      5-min Rain = 0
KNH1 062002Z 20016KT 37/11 A3001 RMK A01 T03720107  RH  020%=      5-min Rain = 0
KNH1 062003Z 20015KT 37/11 A3001 RMK A01 T03710109  RH  021%=      5-min Rain = 0
KNH1 062004Z 20014KT 37/11 A3001 RMK A01 T03700110  RH  021%=      5-min Rain = 0
KNH1 062005Z 19014KT 37/11 A3001 RMK A01 T03700110  RH  021%=      5-min Rain = 0
KNH1 062006Z 19014KT 37/11 A3001 RMK A01 T03710108  RH  021%=      5-min Rain = 0
KNH1 062007Z 19014KT 37/11 A3001 RMK A01 T03700105  RH  020%=      5-min Rain = 0
KNH1 062008Z 18018KT 37/10 A3001 RMK A01 T03710104  RH  020%=      5-min Rain = 0
KNH1 062009Z 19018KT 37/11 A3001 RMK A01 T03730107  RH  020%=      5-min Rain = 0
KNH1 062010Z 20015KT 37/11 A3001 RMK A01 T03730108  RH  020%=      5-min Rain = 0
KNH1 062011Z 19015KT 37/11 A3001 RMK A01 T03740108  RH  020%=      5-min Rain = 0
KNH1 062012Z 19014KT 37/11 A3001 RMK A01 T03740105  RH  020%=      5-min Rain = 0
KNH1 062013Z 19012G18KT 37/11 A3001 RMK A01 T03740108  RH  020%=      5-min Rain = 0
KNH1 062014Z 18016KT 38/11 A30 RMK A01 T03760108  RH  020%=      5-min Rain = 0
KNH1 062015Z 18016KT 38/11 A30 RMK A01 T03760109  RH  020%=      5-min Rain = 0
KNH1 062016Z 19014KT 38/11 A3001 RMK A01 T03770108  RH  020%=      5-min Rain = 0
KNH1 062017Z 20017KT 38/11 A30 RMK A01 T03770105  RH  019%=      5-min Rain = 0
KNH1 062018Z 19015KT 37/10 A30 RMK A01 T03740101  RH  019%=      5-min Rain = 0
KNH1 062019Z 19013KT 37/11 A30 RMK A01 T03730109  RH  020%=      5-min Rain = 0
KNH1 062020Z 20012KT 38/11 A30 RMK A01 T03790110  RH  020%=      5-min Rain = 0
KNH1 062021Z 18014KT 38/11 A30 RMK A01 T03800109  RH  020%=      5-min Rain = 0
KNH1 062022Z 18011KT 38/11 A30 RMK A01 T03760106  RH  020%=      5-min Rain = 0
KNH1 062023Z 18011KT 38/11 A30 RMK A01 T03750108  RH  020%=      5-min Rain = 0
KNH1 062024Z 20013KT 38/11 A30 RMK A01 T03760106  RH  020%=      5-min Rain = 0
KNH1 062025Z 20013KT 38/11 A30 RMK A01 T03790105  RH  019%=      5-min Rain = 0
KNH1 062026Z 20013KT 38/10 A30 RMK A01 T03770102  RH  019%=      5-min Rain = 0
KNH1 062027Z 20012KT 37/10 A30 RMK A01 T03730098  RH  019%=      5-min Rain = 0
KNH1 062028Z 20010G15KT 37/10 A30 RMK A01 T03700100  RH  020%=      5-min Rain = 0
KNH1 062029Z 19009KT 37/10 A30 RMK A01 T03690101  RH  020%=      5-min Rain = 0
KNH1 062030Z 20012KT 37/11 A30 RMK A01 T03720106  RH  020%=      5-min Rain = 0
KNH1 062031Z 21015KT 37/10 A30 RMK A01 T03740104  RH  020%=      5-min Rain = 0
KNH1 062032Z 21015G20KT 37/10 A30 RMK A01 T03740103  RH  020%=      5-min Rain = 0
KNH1 062033Z 21015KT 37/10 A30 RMK A01 T03730103  RH  020%=      5-min Rain = 0
KNH1 062034Z 20013KT 37/10 A30 RMK A01 T03740103  RH  019%=      5-min Rain = 0
KNH1 062035Z 21014KT 38/11 A30 RMK A01 T03770107  RH  020%=      5-min Rain = 0
KNH1 062036Z 21014KT 38/11 A30 RMK A01 T03810105  RH  019%=      5-min Rain = 0
KNH1 062037Z 21014KT 38/11 A30 RMK A01 T03800108  RH  019%=      5-min Rain = 0
KNH1 062038Z 20014G19KT 38/10 A30 RMK A01 T03780103  RH  019%=      5-min Rain = 0
KNH1 062039Z 19013KT 37/11 A30 RMK A01 T03740106  RH  020%=      5-min Rain = 0
KNH1 062040Z 18013KT 37/11 A30 RMK A01 T03740108  RH  020%=      5-min Rain = 0
KNH1 062041Z 19014KT 37/11 A30 RMK A01 T03730106  RH  020%=      5-min Rain = 0
KNH1 062042Z 20016KT 37/11 A30 RMK A01 T03720107  RH  020%=      5-min Rain = 0
KNH1 062043Z 21014KT 37/11 A30 RMK A01 T03710105  RH  020%=      5-min Rain = 0
KNH1 062044Z 23013KT 37/10 A30 RMK A01 T03700103  RH  020%=      5-min Rain = 0
KNH1 062045Z 22013KT 37/10 A30 RMK A01 T03680102  RH  020%=      5-min Rain = 0
KNH1 062046Z 19010KT 37/11 A30 RMK A01 T03670108  RH  021%=      5-min Rain = 0
KNH1 062047Z 18011G17KT 37/11 A30 RMK A01 T03690108  RH  021%=      5-min Rain = 0
KNH1 062048Z 19014KT 37/11 A30 RMK A01 T03680109  RH  021%=      5-min Rain = 0
KNH1 062049Z 19013KT 37/11 A30 RMK A01 T03670111  RH  021%=      5-min Rain = 0
KNH1 062050Z 19014KT 37/11 A30 RMK A01 T03670110  RH  021%=      5-min Rain = 0
KNH1 062051Z 18015KT 37/11 A30 RMK A01 T03670109  RH  021%=      5-min Rain = 0
KNH1 062052Z 18011KT 37/11 A30 RMK A01 T03670106  RH  021%=      5-min Rain = 0
KNH1 062053Z 18010KT 37/11 A30 RMK A01 T03660111  RH  021%=      5-min Rain = 0
KNH1 062054Z 17012KT 37/11 A30 RMK A01 T03670107  RH  021%=      5-min Rain = 0
KNH1 062055Z 17011KT 37/11 A2999 RMK A01 T03670107  RH  021%=      5-min Rain = 0
KNH1 062056Z 17012G17KT 37/11 A2999 RMK A01 T03670110  RH  021%=      5-min Rain = 0
KNH1 062057Z 18013KT 37/11 A2999 RMK A01 T03680109  RH  021%=      5-min Rain = 0
KNH1 062058Z 18010KT 37/11 A2999 RMK A01 T03670108  RH  021%=      5-min Rain = 0
KNH1 062059Z 20011KT 37/11 A2999 RMK A01 T03660109  RH  021%=      5-min Rain = 0
KNH1 062100Z 19012KT 37/11 A2999 RMK A01 T03660108  RH  021%=      5-min Rain = 0
KNH1 062101Z 20011KT 37/11 A2999 RMK A01 T03650109  RH  021%=      5-min Rain = 0
KNH1 062102Z 21012KT 37/11 A2999 RMK A01 T03650110  RH  021%=      5-min Rain = 0
KNH1 062103Z 19011KT 37/11 A2999 RMK A01 T03660112  RH  022%=      5-min Rain = 0
KNH1 062104Z 20012KT 37/11 A2999 RMK A01 T03660114  RH  022%=      5-min Rain = 0
KNH1 062105Z 20015KT 37/11 A2999 RMK A01 T03670113  RH  022%=      5-min Rain = 0
KNH1 062106Z 19013KT 37/11 A2999 RMK A01 T03660111  RH  022%=      5-min Rain = 0
KNH1 062107Z 19014KT 36/11 A2999 RMK A01 T03640111  RH  022%=      5-min Rain = 0
KNH1 062108Z 18011KT 36/11 A2999 RMK A01 T03640110  RH  022%=      5-min Rain = 0
KNH1 062109Z 18013KT 37/11 A2999 RMK A01 T03650108  RH  021%=      5-min Rain = 0
KNH1 062110Z 19011KT 37/11 A2999 RMK A01 T03670108  RH  021%=      5-min Rain = 0
KNH1 062111Z 20011KT 37/11 A2999 RMK A01 T03690110  RH  021%=      5-min Rain = 0
KNH1 062112Z 20010KT 37/11 A2999 RMK A01 T03670108  RH  021%=      5-min Rain = 0
KNH1 062113Z 19009KT 37/11 A2999 RMK A01 T03650110  RH  021%=      5-min Rain = 0
KNH1 062114Z 19009KT 37/11 A2999 RMK A01 T03650110  RH  021%=      5-min Rain = 0
KNH1 062115Z 20009KT 37/11 A2999 RMK A01 T03660113  RH  022%=      5-min Rain = 0
KNH1 062116Z 19010G15KT 37/12 A2999 RMK A01 T03660116  RH  022%=      5-min Rain = 0
KNH1 062117Z 18011KT 37/11 A2999 RMK A01 T03660112  RH  022%=      5-min Rain = 0
KNH1 062118Z 18010KT 37/11 A2999 RMK A01 T03660111  RH  021%=      5-min Rain = 0
KNH1 062119Z 18009KT 37/11 A2999 RMK A01 T03660114  RH  022%=      5-min Rain = 0
KNH1 062120Z 17010KT 37/11 A2999 RMK A01 T03690114  RH  022%=      5-min Rain = 0
KNH1 062121Z 18007KT 37/11 A2999 RMK A01 T03700111  RH  021%=      5-min Rain = 0
KNH1 062122Z 18012KT 37/11 A2999 RMK A01 T03720113  RH  021%=      5-min Rain = 0
KNH1 062123Z 18012KT 37/11 A2998 RMK A01 T03720112  RH  021%=      5-min Rain = 0
KNH1 062124Z 17010KT 37/11 A2998 RMK A01 T03720114  RH  021%=      5-min Rain = 0
KNH1 062125Z 17011KT 37/11 A2998 RMK A01 T03710111  RH  021%=      5-min Rain = 0
KNH1 062126Z 18011KT 37/11 A2998 RMK A01 T03680110  RH  021%=      5-min Rain = 0
KNH1 062127Z 17011KT 37/11 A2998 RMK A01 T03680112  RH  021%=      5-min Rain = 0
KNH1 062128Z 18011KT 37/11 A2998 RMK A01 T03670109  RH  021%=      5-min Rain = 0
KNH1 062129Z 18008KT 37/11 A2998 RMK A01 T03660112  RH  022%=      5-min Rain = 0
KNH1 062130Z 16009KT 37/11 A2998 RMK A01 T03660111  RH  022%=      5-min Rain = 0
KNH1 062131Z 18008KT 37/11 A2998 RMK A01 T03660111  RH  022%=      5-min Rain = 0
KNH1 062132Z 18010KT 37/11 A2998 RMK A01 T03660110  RH  021%=      5-min Rain = 0
KNH1 062133Z 17013G18KT 37/11 A2998 RMK A01 T03660108  RH  021%=      5-min Rain = 0
KNH1 062134Z 17011KT 37/11 A2998 RMK A01 T03650107  RH  021%=      5-min Rain = 0
KNH1 062135Z 18011KT 37/11 A2998 RMK A01 T03650109  RH  021%=      5-min Rain = 0
KNH1 062136Z 17010KT 37/11 A2998 RMK A01 T03670109  RH  021%=      5-min Rain = 0
KNH1 062137Z 16011KT 37/11 A2998 RMK A01 T03680109  RH  021%=      5-min Rain = 0
KNH1 062138Z 16008KT 37/11 A2998 RMK A01 T03680110  RH  021%=      5-min Rain = 0
KNH1 062139Z 15007KT 37/11 A2998 RMK A01 T03690109  RH  021%=      5-min Rain = 0
KNH1 062140Z 14006KT 37/11 A2998 RMK A01 T03710112  RH  021%=      5-min Rain = 0
KNH1 062141Z 16006KT 37/11 A2998 RMK A01 T03740111  RH  021%=      5-min Rain = 0
KNH1 062142Z 19009KT 37/11 A2998 RMK A01 T03740112  RH  021%=      5-min Rain = 0
KNH1 062143Z 18008KT 37/11 A2998 RMK A01 T03710112  RH  021%=      5-min Rain = 0
KNH1 062144Z 16008KT 37/11 A2998 RMK A01 T03700112  RH  021%=      5-min Rain = 0
KNH1 062145Z 17008KT 37/11 A2997 RMK A01 T03710110  RH  021%=      5-min Rain = 0
KNH1 062146Z 16007KT 37/11 A2997 RMK A01 T03710111  RH  021%=      5-min Rain = 0
KNH1 062147Z 19011KT 37/12 A2997 RMK A01 T03720117  RH  022%=      5-min Rain = 0
KNH1 062148Z 18013KT 37/11 A2997 RMK A01 T03740114  RH  021%=      5-min Rain = 0
KNH1 062149Z 17009KT 37/11 A2997 RMK A01 T03730111  RH  021%=      5-min Rain = 0
KNH1 062150Z 17010KT 37/11 A2997 RMK A01 T03720109  RH  021%=      5-min Rain = 0
KNH1 062151Z 16008KT 37/11 A2997 RMK A01 T03700108  RH  021%=      5-min Rain = 0
KNH1 062152Z 16009KT 37/11 A2997 RMK A01 T03690109  RH  021%=      5-min Rain = 0
KNH1 062153Z 18009KT 37/11 A2997 RMK A01 T03690109  RH  021%=      5-min Rain = 0
KNH1 062154Z 18014KT 37/11 A2997 RMK A01 T03700111  RH  021%=      5-min Rain = 0
KNH1 062155Z 17013KT 37/11 A2997 RMK A01 T03720108  RH  020%=      5-min Rain = 0
KNH1 062156Z 16006KT 37/11 A2997 RMK A01 T03730110  RH  021%=      5-min Rain = 0
KNH1 062157Z 15007G13KT 37/11 A2997 RMK A01 T03740110  RH  020%=      5-min Rain = 0
KNH1 062158Z 15011G16KT 38/12 A2996 RMK A01 T03770115  RH  021%=      5-min Rain = 0
KNH1 062159Z 17014KT 38/11 A2996 RMK A01 T03780109  RH  020%=      5-min Rain = 0
KNH1 062200Z 17012KT 38/11 A2996 RMK A01 T03760110  RH  020%=      5-min Rain = 0
KNH1 062201Z 15009KT 38/11 A2996 RMK A01 T03750111  RH  020%=      5-min Rain = 0
KNH1 062202Z 16009KT 37/11 A2996 RMK A01 T03740109  RH  020%=      5-min Rain = 0
KNH1 062203Z 16010KT 37/11 A2996 RMK A01 T03730107  RH  020%=      5-min Rain = 0
KNH1 062204Z 15009G16KT 37/11 A2996 RMK A01 T03730109  RH  020%=      5-min Rain = 0
KNH1 062205Z 15010KT 38/11 A2996 RMK A01 T03750109  RH  020%=      5-min Rain = 0
KNH1 062206Z 16015KT 38/11 A2996 RMK A01 T03760108  RH  020%=      5-min Rain = 0
KNH1 062207Z 18015KT 38/11 A2996 RMK A01 T03760106  RH  020%=      5-min Rain = 0
KNH1 062208Z 17017KT 38/11 A2996 RMK A01 T03770105  RH  020%=      5-min Rain = 0
KNH1 062209Z 18011G19KT 38/10 A2996 RMK A01 T03770104  RH  019%=      5-min Rain = 0
KNH1 062210Z 18016KT 38/11 A2996 RMK A01 T03750107  RH  020%=      5-min Rain = 0
KNH1 062211Z 18016KT 38/11 A2996 RMK A01 T03760106  RH  020%=      5-min Rain = 0
KNH1 062212Z 18015KT 38/11 A2996 RMK A01 T03760106  RH  020%=      5-min Rain = 0
KNH1 062213Z 19015KT 38/11 A2996 RMK A01 T03750106  RH  020%=      5-min Rain = 0
KNH1 062214Z 20014KT 37/11 A2996 RMK A01 T03720105  RH  020%=      5-min Rain = 0
KNH1 062215Z 19014KT 37/11 A2996 RMK A01 T03700106  RH  020%=      5-min Rain = 0
KNH1 062216Z 19012KT 37/11 A2996 RMK A01 T03690106  RH  020%=      5-min Rain = 0
KNH1 062217Z 18010KT 37/11 A2996 RMK A01 T03680107  RH  021%=      5-min Rain = 0
KNH1 062218Z 18011KT 37/11 A2996 RMK A01 T03680105  RH  020%=      5-min Rain = 0
KNH1 062219Z 18011KT 37/10 A2996 RMK A01 T03670102  RH  020%=      5-min Rain = 0
KNH1 062220Z 18008KT 37/10 A2996 RMK A01 T03660103  RH  020%=      5-min Rain = 0
KNH1 062221Z 18008KT 37/10 A2996 RMK A01 T03660103  RH  020%=      5-min Rain = 0
KNH1 062222Z 18009KT 37/10 A2996 RMK A01 T03670104  RH  020%=      5-min Rain = 0
KNH1 062223Z 18015KT 37/11 A2996 RMK A01 T03690107  RH  021%=      5-min Rain = 0
KNH1 062224Z 18014KT 37/11 A2996 RMK A01 T03700108  RH  021%=      5-min Rain = 0
KNH1 062225Z 19015KT 37/11 A2996 RMK A01 T03700107  RH  020%=      5-min Rain = 0
KNH1 062226Z 19012G17KT 37/11 A2996 RMK A01 T03690105  RH  020%=      5-min Rain = 0
KNH1 062227Z 19009KT 37/10 A2996 RMK A01 T03660104  RH  021%=      5-min Rain = 0
KNH1 062228Z 16008G13KT 37/11 A2996 RMK A01 T03660107  RH  021%=      5-min Rain = 0
KNH1 062229Z 15008G15KT 37/11 A2996 RMK A01 T03660107  RH  021%=      5-min Rain = 0
KNH1 062230Z 17010G15KT 37/11 A2996 RMK A01 T03650107  RH  021%=      5-min Rain = 0
KNH1 062231Z 17015G20KT 37/11 A2996 RMK A01 T03650106  RH  021%=      5-min Rain = 0
KNH1 062232Z 17014KT 36/10 A2996 RMK A01 T03640104  RH  021%=      5-min Rain = 0
KNH1 062233Z 16013KT 37/10 A2996 RMK A01 T03650103  RH  021%=      5-min Rain = 0
KNH1 062234Z 17012G17KT 36/10 A2996 RMK A01 T03640103  RH  021%=      5-min Rain = 0
KNH1 062235Z 18013KT 36/10 A2996 RMK A01 T03630103  RH  021%=      5-min Rain = 0
KNH1 062236Z 18012KT 36/10 A2996 RMK A01 T03640103  RH  021%=      5-min Rain = 0
KNH1 062237Z 18012KT 36/10 A2996 RMK A01 T03640103  RH  021%=      5-min Rain = 0
KNH1 062238Z 18010KT 36/10 A2996 RMK A01 T03640104  RH  021%=      5-min Rain = 0
KNH1 062239Z 18010KT 36/11 A2996 RMK A01 T03640105  RH  021%=      5-min Rain = 0
KNH1 062240Z 17012KT 36/10 A2996 RMK A01 T03640104  RH  021%=      5-min Rain = 0
KNH1 062241Z 16014G19KT 36/11 A2996 RMK A01 T03630105  RH  021%=      5-min Rain = 0
KNH1 062242Z 17015KT 36/10 A2996 RMK A01 T03630104  RH  021%=      5-min Rain = 0
KNH1 062243Z 17014KT 36/10 A2996 RMK A01 T03620104  RH  021%=      5-min Rain = 0
KNH1 062244Z 17010KT 36/11 A2996 RMK A01 T03620105  RH  021%=      5-min Rain = 0
KNH1 062245Z 17012KT 36/11 A2996 RMK A01 T03620107  RH  021%=      5-min Rain = 0
KNH1 062246Z 17011KT 36/11 A2995 RMK A01 T03620106  RH  021%=      5-min Rain = 0
KNH1 062247Z 18011KT 36/11 A2995 RMK A01 T03620107  RH  021%=      5-min Rain = 0
KNH1 062248Z 18011KT 36/10 A2995 RMK A01 T03620104  RH  021%=      5-min Rain = 0
KNH1 062249Z 17010KT 36/11 A2996 RMK A01 T03620106  RH  021%=      5-min Rain = 0
KNH1 062250Z 16011G16KT 36/11 A2996 RMK A01 T03620105  RH  021%=      5-min Rain = 0
KNH1 062251Z 16012KT 36/11 A2996 RMK A01 T03610105  RH  021%=      5-min Rain = 0
KNH1 062252Z 16011KT 36/11 A2995 RMK A01 T03610106  RH  021%=      5-min Rain = 0
KNH1 062253Z 16010KT 36/11 A2995 RMK A01 T03610107  RH  022%=      5-min Rain = 0
KNH1 062254Z 17014KT 36/11 A2995 RMK A01 T03600108  RH  022%=      5-min Rain = 0
KNH1 062255Z 18012KT 36/11 A2995 RMK A01 T03610107  RH  022%=      5-min Rain = 0
KNH1 062256Z 18014KT 36/11 A2995 RMK A01 T03610106  RH  021%=      5-min Rain = 0
KNH1 062257Z 18015KT 36/11 A2995 RMK A01 T03620108  RH  022%=      5-min Rain = 0
KNH1 062258Z 19013KT 36/11 A2995 RMK A01 T03610109  RH  022%=      5-min Rain = 0
KNH1 062259Z 18016G21KT 36/11 A2995 RMK A01 T03610109  RH  022%=      5-min Rain = 0
KNH1 062300Z 18013KT 36/11 A2995 RMK A01 T03610107  RH  022%=      5-min Rain = 0
KNH1 062301Z 18010KT 36/11 A2995 RMK A01 T03600108  RH  022%=      5-min Rain = 0
KNH1 062302Z 18009KT 36/11 A2995 RMK A01 T03600110  RH  022%=      5-min Rain = 0
KNH1 062303Z 18009KT 36/11 A2995 RMK A01 T03610112  RH  022%=      5-min Rain = 0
KNH1 062304Z 18011KT 36/11 A2995 RMK A01 T03610112  RH  022%=      5-min Rain = 0
KNH1 062305Z 18011KT 36/11 A2995 RMK A01 T03610113  RH  022%=      5-min Rain = 0
KNH1 062306Z 18012KT 36/11 A2995 RMK A01 T03610111  RH  022%=      5-min Rain = 0
KNH1 062307Z 17009KT 36/11 A2995 RMK A01 T03600108  RH  022%=      5-min Rain = 0
KNH1 062308Z 17010KT 36/11 A2995 RMK A01 T03600108  RH  022%=      5-min Rain = 0
KNH1 062309Z 17010KT 36/11 A2995 RMK A01 T03600109  RH  022%=      5-min Rain = 0
KNH1 062310Z 17010KT 36/11 A2995 RMK A01 T03610109  RH  022%=      5-min Rain = 0
KNH1 062311Z 17011KT 36/11 A2995 RMK A01 T03600108  RH  022%=      5-min Rain = 0
KNH1 062312Z 17009KT 36/11 A2995 RMK A01 T03600109  RH  022%=      5-min Rain = 0
KNH1 062313Z 17011KT 36/11 A2995 RMK A01 T03600110  RH  022%=      5-min Rain = 0
KNH1 062314Z 17011KT 36/11 A2995 RMK A01 T03600110  RH  022%=      5-min Rain = 0
KNH1 062315Z 16010G15KT 36/11 A2995 RMK A01 T03600112  RH  022%=      5-min Rain = 0
KNH1 062316Z 17016G21KT 36/11 A2995 RMK A01 T03590112  RH  023%=      5-min Rain = 0
KNH1 062317Z 17014G19KT 36/11 A2995 RMK A01 T03590114  RH  023%=      5-min Rain = 0
KNH1 062318Z 17013KT 36/11 A2995 RMK A01 T03590114  RH  023%=      5-min Rain = 0
KNH1 062319Z 18012KT 36/12 A2995 RMK A01 T03580115  RH  023%=      5-min Rain = 0
KNH1 062320Z 17013KT 36/12 A2995 RMK A01 T03580115  RH  023%=      5-min Rain = 0
KNH1 062321Z 17012KT 36/11 A2995 RMK A01 T03580114  RH  023%=      5-min Rain = 0
KNH1 062322Z 17012KT 36/11 A2995 RMK A01 T03580113  RH  023%=      5-min Rain = 0
KNH1 062323Z 17015G20KT 36/11 A2995 RMK A01 T03580114  RH  023%=      5-min Rain = 0
KNH1 062324Z 16015KT 36/11 A2995 RMK A01 T03580114  RH  023%=      5-min Rain = 0
KNH1 062325Z 17012KT 36/11 A2995 RMK A01 T03580113  RH  023%=      5-min Rain = 0
KNH1 062326Z 17013G18KT 36/11 A2995 RMK A01 T03570113  RH  023%=      5-min Rain = 0
KNH1 062327Z 17011KT 36/11 A2995 RMK A01 T03570112  RH  023%=      5-min Rain = 0
KNH1 062328Z 17011KT 36/11 A2995 RMK A01 T03570113  RH  023%=      5-min Rain = 0
KNH1 062329Z 17013KT 36/11 A2995 RMK A01 T03570114  RH  023%=      5-min Rain = 0
KNH1 062330Z 17010KT 36/12 A2995 RMK A01 T03570115  RH  023%=      5-min Rain = 0
KNH1 062331Z 17011KT 36/12 A2995 RMK A01 T03570117  RH  023%=      5-min Rain = 0
KNH1 062332Z 17010KT 36/12 A2995 RMK A01 T03560118  RH  024%=      5-min Rain = 0
KNH1 062333Z 17010G17KT 36/12 A2995 RMK A01 T03550120  RH  024%=      5-min Rain = 0
KNH1 062334Z 17013KT 36/12 A2995 RMK A01 T03550118  RH  024%=      5-min Rain = 0
KNH1 062335Z 18010KT 36/11 A2995 RMK A01 T03550112  RH  023%=      5-min Rain = 0
KNH1 062336Z 18011KT 36/11 A2995 RMK A01 T03550112  RH  023%=      5-min Rain = 0
KNH1 062337Z 18013KT 36/11 A2995 RMK A01 T03550113  RH  023%=      5-min Rain = 0
KNH1 062338Z 18012KT 36/11 A2995 RMK A01 T03550113  RH  023%=      5-min Rain = 0
KNH1 062339Z 17014KT 36/11 A2995 RMK A01 T03550114  RH  023%=      5-min Rain = 0
KNH1 062340Z 18014KT 35/11 A2995 RMK A01 T03540114  RH  023%=      5-min Rain = 0
KNH1 062341Z 18012KT 35/11 A2995 RMK A01 T03540114  RH  023%=      5-min Rain = 0
KNH1 062342Z 18011G16KT 35/12 A2995 RMK A01 T03540115  RH  024%=      5-min Rain = 0
KNH1 062343Z 17011KT 35/12 A2995 RMK A01 T03540116  RH  024%=      5-min Rain = 0
KNH1 062344Z 18014G19KT 35/12 A2994 RMK A01 T03530116  RH  024%=      5-min Rain = 0
KNH1 062345Z 17013KT 35/12 A2995 RMK A01 T03530117  RH  024%=      5-min Rain = 0
KNH1 062346Z 17010KT 35/12 A2995 RMK A01 T03520117  RH  024%=      5-min Rain = 0
KNH1 062347Z 18014KT 35/12 A2994 RMK A01 T03520117  RH  024%=      5-min Rain = 0
KNH1 062348Z 18015KT 35/12 A2994 RMK A01 T03520116  RH  024%=      5-min Rain = 0
KNH1 062349Z 17013KT 35/12 A2994 RMK A01 T03520116  RH  024%=      5-min Rain = 0
KNH1 062350Z 17015KT 35/12 A2995 RMK A01 T03510117  RH  024%=      5-min Rain = 0
KNH1 062351Z 17013G18KT 35/12 A2994 RMK A01 T03510117  RH  024%=      5-min Rain = 0
KNH1 062352Z 18016KT 35/12 A2994 RMK A01 T03510118  RH  024%=      5-min Rain = 0
KNH1 062353Z 18012KT 35/12 A2994 RMK A01 T03500118  RH  025%=      5-min Rain = 0
KNH1 062354Z 17013KT 35/12 A2994 RMK A01 T03500118  RH  025%=      5-min Rain = 0
KNH1 062355Z 17014KT 35/12 A2994 RMK A01 T03490118  RH  025%=      5-min Rain = 0
KNH1 062356Z 17013KT 35/12 A2994 RMK A01 T03500118  RH  025%=      5-min Rain = 0
KNH1 062357Z 17010KT 35/12 A2994 RMK A01 T03490118  RH  025%=      5-min Rain = 0
KNH1 062358Z 17011G16KT 35/12 A2994 RMK A01 T03490118  RH  025%=      5-min Rain = 0
KNH1 062359Z 17011KT 35/12 A2994 RMK A01 T03490119  RH  025%=      5-min Rain = 0
KNH1 070000Z 16011KT 35/12 A2994 RMK A01 T03480119  RH  025%=      5-min Rain = 0
KNH1 070001Z 17012KT 35/12 A2994 RMK A01 T03480119  RH  025%=      5-min Rain = 0
KNH1 070002Z 16012G17KT 35/12 A2994 RMK A01 T03480120  RH  025%=      5-min Rain = 0
KNH1 070003Z 17011KT 35/12 A2994 RMK A01 T03470120  RH  025%=      5-min Rain = 0
KNH1 070004Z 17013KT 35/12 A2994 RMK A01 T03460120  RH  025%=      5-min Rain = 0
KNH1 070005Z 17013KT 35/12 A2995 RMK A01 T03460119  RH  025%=      5-min Rain = 0
KNH1 070006Z 17013G19KT 35/12 A2995 RMK A01 T03460119  RH  025%=      5-min Rain = 0
KNH1 070007Z 17011KT 35/12 A2995 RMK A01 T03460119  RH  025%=      5-min Rain = 0
KNH1 070008Z 17010KT 35/12 A2995 RMK A01 T03460120  RH  025%=      5-min Rain = 0
KNH1 070009Z 17011KT 35/12 A2995 RMK A01 T03460120  RH  025%=      5-min Rain = 0
KNH1 070010Z 17011KT 35/12 A2995 RMK A01 T03460120  RH  026%=      5-min Rain = 0
KNH1 070011Z 16011G16KT 35/12 A2995 RMK A01 T03460120  RH  025%=      5-min Rain = 0
KNH1 070012Z 16012KT 35/12 A2995 RMK A01 T03460119  RH  025%=      5-min Rain = 0
KNH1 070013Z 16012KT 35/12 A2995 RMK A01 T03460119  RH  025%=      5-min Rain = 0
KNH1 070014Z 16012KT 35/12 A2995 RMK A01 T03450119  RH  025%=      5-min Rain = 0
KNH1 070015Z 16011KT 35/12 A2995 RMK A01 T03450119  RH  025%=      5-min Rain = 0
KNH1 070016Z 17010KT 35/12 A2995 RMK A01 T03450120  RH  026%=      5-min Rain = 0
KNH1 070017Z 17011G16KT 35/12 A2995 RMK A01 T03450119  RH  026%=      5-min Rain = 0
KNH1 070018Z 17012KT 34/12 A2995 RMK A01 T03440119  RH  026%=      5-min Rain = 0
KNH1 070019Z 17012KT 35/12 A2995 RMK A01 T03450119  RH  025%=      5-min Rain = 0
KNH1 070020Z 17011G16KT 34/12 A2995 RMK A01 T03440118  RH  025%=      5-min Rain = 0
KNH1 070021Z 17010KT 35/12 A2995 RMK A01 T03450118  RH  025%=      5-min Rain = 0
KNH1 070022Z 17011KT 35/12 A2995 RMK A01 T03450119  RH  025%=      5-min Rain = 0
KNH1 070023Z 17010KT 35/12 A2996 RMK A01 T03450119  RH  025%=      5-min Rain = 0
KNH1 070024Z 17012KT 35/12 A2996 RMK A01 T03450119  RH  025%=      5-min Rain = 0
KNH1 070025Z 17010KT 35/12 A2996 RMK A01 T03450120  RH  026%=      5-min Rain = 0
KNH1 070026Z 17012KT 34/12 A2996 RMK A01 T03440120  RH  026%=      5-min Rain = 0
KNH1 070027Z 17011KT 34/12 A2996 RMK A01 T03440120  RH  026%=      5-min Rain = 0
KNH1 070028Z 17013KT 34/12 A2996 RMK A01 T03440120  RH  026%=      5-min Rain = 0
KNH1 070029Z 17013KT 34/12 A2996 RMK A01 T03440121  RH  026%=      5-min Rain = 0
KNH1 070030Z 17012KT 34/12 A2996 RMK A01 T03440120  RH  026%=      5-min Rain = 0
KNH1 070031Z 18013KT 34/12 A2996 RMK A01 T03440121  RH  026%=      5-min Rain = 0
KNH1 070032Z 17012G17KT 34/12 A2996 RMK A01 T03440121  RH  026%=      5-min Rain = 0
KNH1 070033Z 17011KT 34/12 A2996 RMK A01 T03440122  RH  026%=      5-min Rain = 0
KNH1 070034Z 18011KT 34/12 A2996 RMK A01 T03440121  RH  026%=      5-min Rain = 0
KNH1 070035Z 17010KT 34/12 A2997 RMK A01 T03440122  RH  026%=      5-min Rain = 0
KNH1 070036Z 17011KT 34/12 A2997 RMK A01 T03430122  RH  026%=      5-min Rain = 0
KNH1 070037Z 18013KT 34/12 A2997 RMK A01 T03430121  RH  026%=      5-min Rain = 0
KNH1 070038Z 18010KT 34/12 A2997 RMK A01 T03420120  RH  026%=      5-min Rain = 0
KNH1 070039Z 18012KT 34/12 A2997 RMK A01 T03430121  RH  026%=      5-min Rain = 0
KNH1 070040Z 18014KT 34/12 A2997 RMK A01 T03430121  RH  026%=      5-min Rain = 0
KNH1 070041Z 17011KT 34/12 A2997 RMK A01 T03430121  RH  026%=      5-min Rain = 0
KNH1 070042Z 18011KT 34/12 A2997 RMK A01 T03430121  RH  026%=      5-min Rain = 0
KNH1 070043Z 18012KT 34/12 A2997 RMK A01 T03420121  RH  026%=      5-min Rain = 0
KNH1 070044Z 18013KT 34/12 A2997 RMK A01 T03420120  RH  026%=      5-min Rain = 0
KNH1 070045Z 18010KT 34/12 A2997 RMK A01 T03420120  RH  026%=      5-min Rain = 0
KNH1 070046Z 18010KT 34/12 A2997 RMK A01 T03420121  RH  026%=      5-min Rain = 0
KNH1 070047Z 18011KT 34/12 A2997 RMK A01 T03420122  RH  026%=      5-min Rain = 0
KNH1 070048Z 17010KT 34/12 A2997 RMK A01 T03420121  RH  026%=      5-min Rain = 0
KNH1 070049Z 18010KT 34/12 A2997 RMK A01 T03420121  RH  026%=      5-min Rain = 0
KNH1 070050Z 18009KT 34/12 A2997 RMK A01 T03410121  RH  026%=      5-min Rain = 0
KNH1 070051Z 18009KT 34/12 A2998 RMK A01 T03410122  RH  026%=      5-min Rain = 0
KNH1 070052Z 18010KT 34/12 A2998 RMK A01 T03400121  RH  027%=      5-min Rain = 0
KNH1 070053Z 18010KT 34/12 A2998 RMK A01 T03400122  RH  027%=      5-min Rain = 0
KNH1 070054Z 18011KT 34/12 A2998 RMK A01 T03400122  RH  027%=      5-min Rain = 0
KNH1 070055Z 18011KT 34/12 A2998 RMK A01 T03400121  RH  027%=      5-min Rain = 0
KNH1 070056Z 19011KT 34/12 A2998 RMK A01 T03400122  RH  027%=      5-min Rain = 0
KNH1 070057Z 19010KT 34/12 A2998 RMK A01 T03400121  RH  027%=      5-min Rain = 0
KNH1 070058Z 20009KT 34/12 A2998 RMK A01 T03390122  RH  027%=      5-min Rain = 0
KNH1 070059Z 21009KT 34/12 A2999 RMK A01 T03390122  RH  027%=      5-min Rain = 0
KNH1 070100Z 22009KT 34/12 A2999 RMK A01 T03380123  RH  027%=      5-min Rain = 0
KNH1 070101Z 24010KT 34/12 A2999 RMK A01 T03360124  RH  028%=      5-min Rain = 0
KNH1 070102Z 26010KT 34/12 A30 RMK A01 T03360123  RH  028%=      5-min Rain = 0
KNH1 070103Z 27012KT 34/13 A30 RMK A01 T03350125  RH  028%=      5-min Rain = 0
KNH1 070104Z 27015KT 33/13 A30 RMK A01 T03290127  RH  029%=      5-min Rain = 0
KNH1 070105Z 27013KT 32/13 A30 RMK A01 T03230127  RH  030%=      5-min Rain = 0
KNH1 070106Z 27013KT 32/13 A3001 RMK A01 T03190127  RH  031%=      5-min Rain = 0
KNH1 070107Z 26014KT 32/13 A3001 RMK A01 T03160128  RH  032%=      5-min Rain = 0
KNH1 070108Z 25015KT 32/13 A3001 RMK A01 T03150129  RH  032%=      5-min Rain = 0
KNH1 070109Z 25018KT 31/13 A3001 RMK A01 T03140130  RH  033%=      5-min Rain = 0
KNH1 070110Z 25016KT 31/13 A3002 RMK A01 T03120134  RH  034%=      5-min Rain = 0
KNH1 070111Z 26016G21KT 31/14 A3002 RMK A01 T03090135  RH  035%=      5-min Rain = 0
KNH1 070112Z 27020G26KT 31/14 A3002 RMK A01 T03070137  RH  036%=      5-min Rain = 0
KNH1 070113Z 27021G27KT 30/14 A3002 RMK A01 T03040139  RH  037%=      5-min Rain = 0
KNH1 070114Z 27020KT 30/14 A3002 RMK A01 T03010140  RH  037%=      5-min Rain = 0
KNH1 070115Z 26017KT 30/14 A3002 RMK A01 T02980140  RH  038%=      5-min Rain = 0
KNH1 070116Z 26015G20KT 30/14 A3002 RMK A01 T02970141  RH  039%=      5-min Rain = 0
KNH1 070117Z 27014G19KT 30/14 A3002 RMK A01 T02950142  RH  039%=      5-min Rain = 0
KNH1 070118Z 27015KT 29/14 A3002 RMK A01 T02940140  RH  039%=      5-min Rain = 0
KNH1 070119Z 29019G25KT 30/14 A3002 RMK A01 T02950138  RH  038%=      5-min Rain = 0
KNH1 070120Z 27016G21KT 30/14 A3002 RMK A01 T02950138  RH  038%=      5-min Rain = 0
KNH1 070121Z 26017G22KT 30/14 A3002 RMK A01 T02950142  RH  039%=      5-min Rain = 0
KNH1 070122Z 27018G24KT 29/15 A3002 RMK A01 T02920147  RH  041%=      5-min Rain = 0
KNH1 070123Z 27020KT 29/14 A3003 RMK A01 T02910142  RH  040%=      5-min Rain = 0
KNH1 070124Z 27017G24KT 29/14 A3003 RMK A01 T02900143  RH  041%=      5-min Rain = 0
KNH1 070125Z 27017G22KT 29/14 A3003 RMK A01 T02900140  RH  040%=      5-min Rain = 0
KNH1 070126Z 28021G26KT 29/14 A3003 RMK A01 T02900140  RH  040%=      5-min Rain = 0
KNH1 070127Z 28020G25KT 29/14 A3003 RMK A01 T02900140  RH  040%=      5-min Rain = 0
KNH1 070128Z 28018KT 29/14 A3003 RMK A01 T02900141  RH  040%=      5-min Rain = 0
KNH1 070129Z 28017KT 29/14 A3003 RMK A01 T02900140  RH  040%=      5-min Rain = 0
KNH1 070130Z 29017KT 29/14 A3003 RMK A01 T02890141  RH  040%=      5-min Rain = 0
KNH1 070131Z 28015KT 29/14 A3003 RMK A01 T02890141  RH  041%=      5-min Rain = 0
KNH1 070132Z 28013G18KT 29/14 A3003 RMK A01 T02880142  RH  041%=      5-min Rain = 0
KNH1 070133Z 28015KT 29/14 A3003 RMK A01 T02880142  RH  041%=      5-min Rain = 0
KNH1 070134Z 28016KT 29/14 A3003 RMK A01 T02870142  RH  041%=      5-min Rain = 0
KNH1 070135Z 28014KT 29/14 A3004 RMK A01 T02860142  RH  041%=      5-min Rain = 0
KNH1 070136Z 28013KT 29/14 A3004 RMK A01 T02860142  RH  041%=      5-min Rain = 0
KNH1 070137Z 28014KT 29/14 A3004 RMK A01 T02860142  RH  041%=      5-min Rain = 0
KNH1 070138Z 28013KT 29/14 A3004 RMK A01 T02850142  RH  041%=      5-min Rain = 0
KNH1 070139Z 28013KT 29/14 A3004 RMK A01 T02850143  RH  042%=      5-min Rain = 0
KNH1 070140Z 28012KT 29/14 A3004 RMK A01 T02850143  RH  042%=      5-min Rain = 0
KNH1 070141Z 28014KT 28/14 A3004 RMK A01 T02840143  RH  042%=      5-min Rain = 0
KNH1 070142Z 28014KT 28/14 A3004 RMK A01 T02840142  RH  042%=      5-min Rain = 0
KNH1 070143Z 27012KT 28/14 A3004 RMK A01 T02840142  RH  042%=      5-min Rain = 0
KNH1 070144Z 27012KT 28/15 A3004 RMK A01 T02840145  RH  043%=      5-min Rain = 0
KNH1 070145Z 27012KT 28/15 A3004 RMK A01 T02820145  RH  043%=      5-min Rain = 0
KNH1 070146Z 26011KT 28/15 A3004 RMK A01 T02810146  RH  044%=      5-min Rain = 0
KNH1 070147Z 26012KT 28/15 A3004 RMK A01 T02800148  RH  044%=      5-min Rain = 0
KNH1 070148Z 26012KT 28/15 A3004 RMK A01 T02790150  RH  045%=      5-min Rain = 0
KNH1 070149Z 26012KT 28/15 A3004 RMK A01 T02770152  RH  046%=      5-min Rain = 0
KNH1 070150Z 26011KT 28/15 A3004 RMK A01 T02750153  RH  047%=      5-min Rain = 0
KNH1 070151Z 26011KT 27/15 A3004 RMK A01 T02730154  RH  048%=      5-min Rain = 0
KNH1 070152Z 26010KT 27/16 A3004 RMK A01 T02720155  RH  049%=      5-min Rain = 0
KNH1 070153Z 26011KT 27/16 A3004 RMK A01 T02710157  RH  050%=      5-min Rain = 0
KNH1 070154Z 26011KT 27/16 A3004 RMK A01 T02700158  RH  050%=      5-min Rain = 0
KNH1 070155Z 27011KT 27/16 A3004 RMK A01 T02680159  RH  051%=      5-min Rain = 0
KNH1 070156Z 27010KT 27/16 A3004 RMK A01 T02680159  RH  051%=      5-min Rain = 0
KNH1 070157Z 27010KT 27/16 A3004 RMK A01 T02670159  RH  051%=      5-min Rain = 0
KNH1 070158Z 26009KT 27/16 A3004 RMK A01 T02670159  RH  052%=      5-min Rain = 0
KNH1 070159Z 26010KT 27/16 A3004 RMK A01 T02670160  RH  052%=      5-min Rain = 0
KNH1 070200Z 26012KT 27/16 A3004 RMK A01 T02670159  RH  051%=      5-min Rain = 0
KNH1 070201Z 26010KT 27/16 A3004 RMK A01 T02670158  RH  051%=      5-min Rain = 0
KNH1 070202Z 26014KT 27/15 A3004 RMK A01 T02680154  RH  050%=      5-min Rain = 0
KNH1 070203Z 26012KT 27/15 A3005 RMK A01 T02710153  RH  048%=      5-min Rain = 0
KNH1 070204Z 25012KT 27/15 A3005 RMK A01 T02730152  RH  048%=      5-min Rain = 0
KNH1 070205Z 25013KT 27/15 A3005 RMK A01 T02740151  RH  047%=      5-min Rain = 0
KNH1 070206Z 25012KT 28/15 A3005 RMK A01 T02750151  RH  047%=      5-min Rain = 0
KNH1 070207Z 25012KT 28/15 A3005 RMK A01 T02750151  RH  047%=      5-min Rain = 0
KNH1 070208Z 25013KT 28/15 A3005 RMK A01 T02760148  RH  046%=      5-min Rain = 0
KNH1 070209Z 25012KT 28/15 A3005 RMK A01 T02780145  RH  044%=      5-min Rain = 0
KNH1 070210Z 25013KT 28/15 A3005 RMK A01 T02800145  RH  044%=      5-min Rain = 0
KNH1 070211Z 25011KT 28/14 A3005 RMK A01 T02810144  RH  043%=      5-min Rain = 0
KNH1 070212Z 25011KT 28/15 A3005 RMK A01 T02810145  RH  043%=      5-min Rain = 0
KNH1 070213Z 25012KT 28/15 A3005 RMK A01 T02810145  RH  043%=      5-min Rain = 0
KNH1 070214Z 25010KT 28/15 A3005 RMK A01 T02810146  RH  044%=      5-min Rain = 0
KNH1 070215Z 25010KT 28/15 A3005 RMK A01 T02810147  RH  044%=      5-min Rain = 0
KNH1 070216Z 25011KT 28/15 A3005 RMK A01 T02800148  RH  044%=      5-min Rain = 0
KNH1 070217Z 25009KT 28/15 A3005 RMK A01 T02790147  RH  045%=      5-min Rain = 0
KNH1 070218Z 25009KT 28/15 A3005 RMK A01 T02790148  RH  045%=      5-min Rain = 0
KNH1 070219Z 24013KT 28/15 A3005 RMK A01 T02790149  RH  045%=      5-min Rain = 0
KNH1 070220Z 24014KT 28/15 A3005 RMK A01 T02790148  RH  045%=      5-min Rain = 0
KNH1 070221Z 23015G20KT 28/15 A3005 RMK A01 T02790146  RH  044%=      5-min Rain = 0
KNH1 070222Z 23017KT 28/15 A3005 RMK A01 T02800145  RH  044%=      5-min Rain = 0
KNH1 070223Z 23016KT 28/15 A3005 RMK A01 T02800145  RH  043%=      5-min Rain = 0
KNH1 070224Z 23016KT 28/15 A3004 RMK A01 T02800145  RH  044%=      5-min Rain = 0
KNH1 070225Z 23014KT 28/15 A3004 RMK A01 T02800146  RH  044%=      5-min Rain = 0
KNH1 070226Z 23014KT 28/15 A3004 RMK A01 T02790146  RH  044%=      5-min Rain = 0
KNH1 070227Z 23012KT 28/15 A3004 RMK A01 T02780146  RH  044%=      5-min Rain = 0
KNH1 070228Z 23013KT 28/15 A3004 RMK A01 T02780147  RH  045%=      5-min Rain = 0
KNH1 070229Z 23014KT 28/15 A3004 RMK A01 T02770146  RH  045%=      5-min Rain = 0
KNH1 070230Z 23011KT 28/15 A3004 RMK A01 T02760146  RH  045%=      5-min Rain = 0
KNH1 070231Z 23014KT 28/15 A3004 RMK A01 T02760146  RH  045%=      5-min Rain = 0
KNH1 070232Z 23014KT 28/15 A3004 RMK A01 T02760147  RH  045%=      5-min Rain = 0
KNH1 070233Z 23014KT 28/15 A3004 RMK A01 T02760146  RH  045%=      5-min Rain = 0
KNH1 070234Z 23014KT 28/15 A3004 RMK A01 T02760146  RH  045%=      5-min Rain = 0
KNH1 070235Z 23012KT 28/15 A3004 RMK A01 T02760145  RH  045%=      5-min Rain = 0
KNH1 070236Z 23013KT 28/14 A3004 RMK A01 T02760144  RH  045%=      5-min Rain = 0
KNH1 070237Z 22014KT 28/14 A3004 RMK A01 T02760143  RH  044%=      5-min Rain = 0
KNH1 070238Z 23014KT 28/14 A3004 RMK A01 T02760141  RH  044%=      5-min Rain = 0
KNH1 070239Z 22013KT 28/14 A3003 RMK A01 T02760142  RH  044%=      5-min Rain = 0
KNH1 070240Z 22014KT 28/14 A3003 RMK A01 T02760143  RH  044%=      5-min Rain = 0
KNH1 070241Z 22014KT 28/14 A3003 RMK A01 T02760143  RH  044%=      5-min Rain = 0
KNH1 070242Z 21013KT 28/14 A3003 RMK A01 T02760142  RH  044%=      5-min Rain = 0
KNH1 070243Z 21011KT 28/14 A3003 RMK A01 T02750143  RH  044%=      5-min Rain = 0
KNH1 070244Z 20011KT 27/14 A3003 RMK A01 T02740143  RH  044%=      5-min Rain = 0
KNH1 070245Z 21013KT 27/14 A3003 RMK A01 T02740142  RH  045%=      5-min Rain = 0
KNH1 070246Z 20013KT 27/14 A3003 RMK A01 T02730142  RH  045%=      5-min Rain = 0
KNH1 070247Z 20011KT 27/14 A3003 RMK A01 T02730143  RH  045%=      5-min Rain = 0
KNH1 070248Z 20013KT 27/14 A3003 RMK A01 T02720143  RH  045%=      5-min Rain = 0
KNH1 070249Z 20014KT 27/14 A3002 RMK A01 T02720143  RH  045%=      5-min Rain = 0
KNH1 070250Z 20011KT 27/14 A3002 RMK A01 T02720143  RH  045%=      5-min Rain = 0
KNH1 070251Z 20013KT 27/14 A3002 RMK A01 T02720142  RH  045%=      5-min Rain = 0
KNH1 070252Z 20015G20KT 27/14 A3002 RMK A01 T02720141  RH  045%=      5-min Rain = 0
KNH1 070253Z 20015KT 27/14 A3002 RMK A01 T02730139  RH  044%=      5-min Rain = 0
KNH1 070254Z 20013KT 27/14 A3002 RMK A01 T02740138  RH  043%=      5-min Rain = 0
KNH1 070255Z 20013KT 28/14 A3002 RMK A01 T02750138  RH  043%=      5-min Rain = 0
KNH1 070256Z 20013G20KT 28/14 A3002 RMK A01 T02760135  RH  042%=      5-min Rain = 0
KNH1 070257Z 19015KT 28/13 A3002 RMK A01 T02780133  RH  041%=      5-min Rain = 0
KNH1 070258Z 19014KT 28/13 A3001 RMK A01 T02800132  RH  040%=      5-min Rain = 0
KNH1 070259Z 19012KT 28/13 A3001 RMK A01 T02800131  RH  040%=      5-min Rain = 0
KNH1 070300Z 19012KT 28/13 A3001 RMK A01 T02800132  RH  040%=      5-min Rain = 0
KNH1 070301Z 18014KT 28/13 A3001 RMK A01 T02800131  RH  040%=      5-min Rain = 0
KNH1 070302Z 18015KT 28/13 A3001 RMK A01 T02800131  RH  040%=      5-min Rain = 0
KNH1 070303Z 18016KT 28/13 A3001 RMK A01 T02810132  RH  040%=      5-min Rain = 0
KNH1 070304Z 18015KT 28/13 A3001 RMK A01 T02810132  RH  040%=      5-min Rain = 0
KNH1 070305Z 18015KT 28/13 A30 RMK A01 T02810130  RH  039%=      5-min Rain = 0
KNH1 070306Z 18013KT 28/13 A30 RMK A01 T02820127  RH  038%=      5-min Rain = 0
KNH1 070307Z 18015KT 28/13 A30 RMK A01 T02830126  RH  038%=      5-min Rain = 0
KNH1 070308Z 18015KT 28/13 A30 RMK A01 T02840126  RH  038%=      5-min Rain = 0
KNH1 070309Z 18015KT 29/13 A30 RMK A01 T02850127  RH  038%=      5-min Rain = 0
KNH1 070310Z 18016KT 29/13 A30 RMK A01 T02850125  RH  037%=      5-min Rain = 0
KNH1 070311Z 18014KT 29/13 A30 RMK A01 T02850125  RH  037%=      5-min Rain = 0
KNH1 070312Z 18015KT 29/13 A30 RMK A01 T02850125  RH  037%=      5-min Rain = 0
KNH1 070313Z 18015KT 29/12 A30 RMK A01 T02850124  RH  037%=      5-min Rain = 0
KNH1 070314Z 17014KT 29/12 A2999 RMK A01 T02860124  RH  037%=      5-min Rain = 0
KNH1 070315Z 18014KT 29/13 A2999 RMK A01 T02850125  RH  037%=      5-min Rain = 0
KNH1 070316Z 18013KT 29/13 A2999 RMK A01 T02850126  RH  037%=      5-min Rain = 0
KNH1 070317Z 18012KT 29/13 A2999 RMK A01 T02850126  RH  037%=      5-min Rain = 0
KNH1 070318Z 17011KT 29/13 A2999 RMK A01 T02850127  RH  038%=      5-min Rain = 0
KNH1 070319Z 17012KT 29/13 A2999 RMK A01 T02850125  RH  037%=      5-min Rain = 0
KNH1 070320Z 17011G16KT 29/12 A2999 RMK A01 T02850124  RH  037%=      5-min Rain = 0
KNH1 070321Z 17010KT 29/12 A2999 RMK A01 T02860123  RH  037%=      5-min Rain = 0
KNH1 070322Z 18012KT 29/12 A2999 RMK A01 T02860123  RH  036%=      5-min Rain = 0
KNH1 070323Z 18012KT 29/12 A30 RMK A01 T02870123  RH  036%=      5-min Rain = 0
KNH1 070324Z 19013KT 29/12 A30 RMK A01 T02870122  RH  036%=      5-min Rain = 0
KNH1 070325Z 19014KT 29/12 A30 RMK A01 T02880119  RH  035%=      5-min Rain = 0
KNH1 070326Z 19011KT 29/12 A30 RMK A01 T02900119  RH  035%=      5-min Rain = 0
KNH1 070327Z 19011G16KT 29/12 A30 RMK A01 T02900119  RH  035%=      5-min Rain = 0
KNH1 070328Z 19009KT 29/12 A3001 RMK A01 T02900119  RH  035%=      5-min Rain = 0
KNH1 070329Z 18012KT 29/12 A3001 RMK A01 T02900120  RH  035%=      5-min Rain = 0
KNH1 070330Z 18012KT 29/12 A3001 RMK A01 T02900119  RH  035%=      5-min Rain = 0
KNH1 070331Z 18012KT 29/12 A3001 RMK A01 T02900119  RH  035%=      5-min Rain = 0
KNH1 070332Z 18012KT 29/12 A3001 RMK A01 T02900120  RH  035%=      5-min Rain = 0
KNH1 070333Z 19011KT 29/12 A3001 RMK A01 T02890120  RH  035%=      5-min Rain = 0
KNH1 070334Z 18011KT 29/12 A3001 RMK A01 T02900120  RH  035%=      5-min Rain = 0
KNH1 070335Z 18010KT 29/12 A3001 RMK A01 T02900120  RH  035%=      5-min Rain = 0
KNH1 070336Z 18009KT 29/12 A3001 RMK A01 T02890120  RH  035%=      5-min Rain = 0
KNH1 070337Z 19010KT 29/12 A3001 RMK A01 T02890121  RH  035%=      5-min Rain = 0
KNH1 070338Z 20009KT 29/12 A3001 RMK A01 T02880121  RH  036%=      5-min Rain = 0
KNH1 070339Z 19008KT 29/12 A3001 RMK A01 T02870122  RH  036%=      5-min Rain = 0
KNH1 070340Z 19007KT 29/12 A3001 RMK A01 T02860122  RH  036%=      5-min Rain = 0
KNH1 070341Z 19007KT 29/12 A3001 RMK A01 T02850122  RH  036%=      5-min Rain = 0
KNH1 070342Z 19007KT 28/12 A3001 RMK A01 T02840122  RH  037%=      5-min Rain = 0
KNH1 070343Z 19006KT 28/12 A3001 RMK A01 T02840122  RH  037%=      5-min Rain = 0
KNH1 070344Z 18007KT 28/12 A3001 RMK A01 T02830122  RH  037%=      5-min Rain = 0
KNH1 070345Z 18007KT 28/12 A3001 RMK A01 T02830121  RH  037%=      5-min Rain = 0
KNH1 070346Z 17007KT 28/12 A3001 RMK A01 T02840119  RH  036%=      5-min Rain = 0
KNH1 070347Z 17006KT 29/12 A30 RMK A01 T02850119  RH  036%=      5-min Rain = 0
KNH1 070348Z 17008KT 29/12 A30 RMK A01 T02860118  RH  035%=      5-min Rain = 0
KNH1 070349Z 18008KT 29/12 A30 RMK A01 T02870116  RH  035%=      5-min Rain = 0
KNH1 070350Z 17009KT 29/12 A30 RMK A01 T02890116  RH  034%=      5-min Rain = 0
KNH1 070351Z 17007KT 29/12 A30 RMK A01 T02900116  RH  034%=      5-min Rain = 0
KNH1 070352Z 18009KT 29/12 A3001 RMK A01 T02910116  RH  034%=      5-min Rain = 0
KNH1 070353Z 18008KT 29/12 A3001 RMK A01 T02910116  RH  034%=      5-min Rain = 0
KNH1 070354Z 18008KT 29/12 A3001 RMK A01 T02910117  RH  034%=      5-min Rain = 0
KNH1 070355Z 18009KT 29/12 A30 RMK A01 T02910117  RH  034%=      5-min Rain = 0
KNH1 070356Z 18009KT 29/12 A30 RMK A01 T02910117  RH  034%=      5-min Rain = 0
KNH1 070357Z 17008KT 29/12 A3001 RMK A01 T02920117  RH  034%=      5-min Rain = 0
KNH1 070358Z 18008KT 29/12 A3001 RMK A01 T02920118  RH  034%=      5-min Rain = 0
KNH1 070359Z 17007KT 29/12 A3001 RMK A01 T02920119  RH  034%=      5-min Rain = 0
KNH1 070400Z 18006KT 29/12 A3001 RMK A01 T02910119  RH  035%=      5-min Rain = 0
KNH1 070401Z 18007KT 29/12 A3001 RMK A01 T02900120  RH  035%=      5-min Rain = 0
KNH1 070402Z 17007KT 29/12 A3001 RMK A01 T02890120  RH  035%=      5-min Rain = 0
KNH1 070403Z 18007KT 29/12 A3001 RMK A01 T02880121  RH  035%=      5-min Rain = 0
KNH1 070404Z 18007KT 29/12 A3001 RMK A01 T02880121  RH  036%=      5-min Rain = 0
KNH1 070405Z 18007KT 29/12 A3001 RMK A01 T02870122  RH  036%=      5-min Rain = 0
KNH1 070406Z 18008KT 29/12 A3001 RMK A01 T02870122  RH  036%=      5-min Rain = 0
KNH1 070407Z 18007KT 29/12 A3001 RMK A01 T02860122  RH  036%=      5-min Rain = 0
KNH1 070408Z 18006KT 29/12 A3001 RMK A01 T02860123  RH  036%=      5-min Rain = 0
KNH1 070409Z 18006KT 29/12 A3001 RMK A01 T02850123  RH  037%=      5-min Rain = 0
KNH1 070410Z 18006KT 29/12 A3001 RMK A01 T02850124  RH  037%=      5-min Rain = 0
KNH1 070411Z 18007KT 28/12 A3001 RMK A01 T02840124  RH  037%=      5-min Rain = 0
KNH1 070412Z 18007KT 28/13 A3001 RMK A01 T02830125  RH  037%=      5-min Rain = 0
KNH1 070413Z 18007KT 28/13 A3001 RMK A01 T02830125  RH  038%=      5-min Rain = 0
KNH1 070414Z 18006KT 28/13 A3001 RMK A01 T02830126  RH  038%=      5-min Rain = 0
KNH1 070415Z 17006KT 28/13 A3001 RMK A01 T02820126  RH  038%=      5-min Rain = 0
KNH1 070416Z 17006KT 28/13 A3001 RMK A01 T02820126  RH  038%=      5-min Rain = 0
KNH1 070417Z 16006KT 28/13 A3001 RMK A01 T02820127  RH  038%=      5-min Rain = 0
KNH1 070418Z 17007KT 28/13 A3001 RMK A01 T02820127  RH  038%=      5-min Rain = 0
KNH1 070419Z 17007KT 28/13 A3001 RMK A01 T02820128  RH  039%=      5-min Rain = 0
KNH1 070420Z 17007KT 28/13 A3001 RMK A01 T02820128  RH  039%=      5-min Rain = 0
KNH1 070421Z 17007KT 28/13 A3001 RMK A01 T02820129  RH  039%=      5-min Rain = 0
KNH1 070422Z 18007KT 28/13 A3001 RMK A01 T02820129  RH  039%=      5-min Rain = 0
KNH1 070423Z 18008KT 28/13 A3001 RMK A01 T02820130  RH  039%=      5-min Rain = 0
KNH1 070424Z 19009KT 28/13 A3001 RMK A01 T02830131  RH  039%=      5-min Rain = 0
KNH1 070425Z 19009KT 28/13 A3001 RMK A01 T02830132  RH  039%=      5-min Rain = 0
KNH1 070426Z 19009KT 28/13 A3001 RMK A01 T02840132  RH  039%=      5-min Rain = 0
KNH1 070427Z 19008KT 28/13 A3001 RMK A01 T02840133  RH  039%=      5-min Rain = 0
KNH1 070428Z 19010KT 28/13 A3001 RMK A01 T02840134  RH  040%=      5-min Rain = 0
KNH1 070429Z 19010KT 28/13 A3001 RMK A01 T02840134  RH  040%=      5-min Rain = 0
KNH1 070430Z 19011KT 28/14 A3001 RMK A01 T02840135  RH  040%=      5-min Rain = 0
KNH1 070431Z 19010KT 29/14 A30 RMK A01 T02850135  RH  040%=      5-min Rain = 0
KNH1 070432Z 19011KT 29/14 A30 RMK A01 T02850136  RH  040%=      5-min Rain = 0
KNH1 070433Z 19011KT 29/14 A30 RMK A01 T02860136  RH  040%=      5-min Rain = 0
KNH1 070434Z 18011KT 29/14 A30 RMK A01 T02860136  RH  040%=      5-min Rain = 0
KNH1 070435Z 19011KT 29/14 A30 RMK A01 T02870137  RH  040%=      5-min Rain = 0
KNH1 070436Z 19012KT 29/14 A30 RMK A01 T02880137  RH  040%=      5-min Rain = 0
KNH1 070437Z 18012KT 29/14 A30 RMK A01 T02880137  RH  040%=      5-min Rain = 0
KNH1 070438Z 19011KT 29/14 A30 RMK A01 T02880137  RH  040%=      5-min Rain = 0
KNH1 070439Z 18011KT 29/14 A30 RMK A01 T02880138  RH  040%=      5-min Rain = 0
KNH1 070440Z 18011KT 29/14 A30 RMK A01 T02880139  RH  040%=      5-min Rain = 0
KNH1 070441Z 18011KT 29/14 A30 RMK A01 T02880139  RH  040%=      5-min Rain = 0
KNH1 070442Z 19010KT 29/14 A30 RMK A01 T02880139  RH  040%=      5-min Rain = 0
KNH1 070443Z 18012KT 29/14 A30 RMK A01 T02870139  RH  040%=      5-min Rain = 0
KNH1 070444Z 19010KT 29/14 A30 RMK A01 T02870139  RH  040%=      5-min Rain = 0
KNH1 070445Z 18011KT 29/14 A30 RMK A01 T02870139  RH  040%=      5-min Rain = 0
KNH1 070446Z 19011KT 29/14 A30 RMK A01 T02870139  RH  040%=      5-min Rain = 0
KNH1 070447Z 19012KT 29/14 A30 RMK A01 T02860139  RH  041%=      5-min Rain = 0
KNH1 070448Z 19012KT 29/14 A30 RMK A01 T02860140  RH  041%=      5-min Rain = 0
KNH1 070449Z 19011KT 29/14 A30 RMK A01 T02860140  RH  041%=      5-min Rain = 0
KNH1 070450Z 19011KT 29/14 A30 RMK A01 T02860140  RH  041%=      5-min Rain = 0
KNH1 070451Z 19011KT 29/14 A30 RMK A01 T02850140  RH  041%=      5-min Rain = 0
KNH1 070452Z 19012KT 29/14 A30 RMK A01 T02850140  RH  041%=      5-min Rain = 0
KNH1 070453Z 19011KT 29/14 A30 RMK A01 T02860140  RH  041%=      5-min Rain = 0
KNH1 070454Z 19011KT 29/14 A30 RMK A01 T02850140  RH  041%=      5-min Rain = 0
KNH1 070455Z 19012KT 29/14 A30 RMK A01 T02850139  RH  041%=      5-min Rain = 0
KNH1 070456Z 19011KT 29/14 A30 RMK A01 T02860139  RH  041%=      5-min Rain = 0
KNH1 070457Z 19012KT 29/14 A30 RMK A01 T02850139  RH  041%=      5-min Rain = 0
KNH1 070458Z 18011KT 29/14 A30 RMK A01 T02850139  RH  041%=      5-min Rain = 0
KNH1 070459Z 18011KT 29/14 A30 RMK A01 T02850139  RH  041%=      5-min Rain = 0

Page generated in 0.1332 seconds.